M I D A S
Marine Information and Data Acquisition System
Tripno 754 of the Zeeleeuw from 2004-07-30 06:45:21 to 2004-07-30 12:54:01
Back to CruiseResearch ActivitiesStationsMapUnderway DataData graphs

EquipmentUnitsComment
TimeDGPSUTC
LatitudeDGPSDM.mWGS84
LongitudeDGPSDM.mWGS84
TemperatureSBE03/SBE38deg celciusITS90
ConductivitySBE21S/mITS90
SalinitySBE21 Practical Salinity Units
ChlorophylAChelsea fluorimeterg/lCalibrated in Aceton
Missing or incorrect values are displayed as -999
Sea surface data collected by the RV Zeeleeuw from 2004-07-30 06:45:21 to 2004-07-30 12:54:01
                                                                                    Next 1000 lines
Time Latitude Longitude Temperature Conductivity Salinity ChlorophylA
2004-07-30 06:45:29 51°16.303 2°53.304 19.991574 4.517174 32.637022 2.926785
2004-07-30 06:45:34 51°16.319 2°53.289 19.986191 4.516119 32.63013 2.893076
2004-07-30 06:45:38 51°16.331 2°53.277 19.986191 4.516119 32.63013 2.893076
2004-07-30 06:45:45 51°16.353 2°53.255 19.983925 4.515381 32.627974 2.724529
2004-07-30 06:45:49 51°16.366 2°53.244 19.981172 4.514748 32.623947 2.791947
2004-07-30 06:45:54 51°16.381 2°53.229 19.978703 4.51401 32.621246 2.825657
2004-07-30 06:45:59 51°16.398 2°53.215 19.976477 4.514115 32.622098 2.65711
2004-07-30 06:46:03 51°16.41 2°53.204 19.970041 4.513377 32.619397 2.65711
2004-07-30 06:46:10 51°16.433 2°53.187 19.970041 4.513377 32.619397 2.65711
2004-07-30 06:46:14 51°16.446 2°53.177 19.971458 4.51401 32.626148 2.690819
2004-07-30 06:46:19 51°16.463 2°53.164 19.968907 4.515276 32.638018 2.791947
2004-07-30 06:46:23 51°16.476 2°53.154 19.971539 4.515803 32.645008 2.589691
2004-07-30 06:46:29 51°16.495 2°53.138 19.976194 4.518018 32.66456 2.522272
2004-07-30 06:46:34 51°16.51 2°53.124 19.980646 4.520339 32.686606 2.555982
2004-07-30 06:46:39 51°16.526 2°53.11 19.980646 4.520339 32.686606 2.555982
2004-07-30 06:46:44 51°16.542 2°53.096 19.98611 4.523926 32.717261 2.555982
2004-07-30 06:46:48 51°16.554 2°53.085 19.990967 4.530993 32.775549 2.589691
2004-07-30 06:46:54 51°16.573 2°53.068 19.996956 4.538377 32.834223 2.6234
2004-07-30 06:46:59 51°16.588 2°53.054 20.001893 4.549769 32.923722 2.724529
2004-07-30 06:47:03 51°16.601 2°53.043 20.007598 4.5619 33.019227 2.791947
2004-07-30 06:47:09 51°16.62 2°53.025 20.007598 4.5619 33.019227 2.791947
2004-07-30 06:47:14 51°16.635 2°53.011 20.012615 4.573187 33.107923 2.893076
2004-07-30 06:47:19 51°16.651 2°52.997 20.014355 4.581205 33.167918 3.162751
2004-07-30 06:47:23 51°16.663 2°52.986 20.016822 4.588694 33.224748 3.061623
2004-07-30 06:47:29 51°16.682 2°52.97 20.018724 4.594602 33.268197 3.027913
2004-07-30 06:47:34 51°16.698 2°52.956 20.019937 4.600193 33.309636 3.23017
2004-07-30 06:47:38 51°16.71 2°52.945 20.019937 4.600193 33.309636 3.23017
2004-07-30 06:47:43 51°16.726 2°52.931 20.023214 4.603568 33.333669 3.297589
2004-07-30 06:47:49 51°16.744 2°52.915 20.024792 4.606839 33.359072 3.263879
2004-07-30 06:47:54 51°16.76 2°52.902 20.028675 4.608526 33.369973 3.331298
2004-07-30 06:47:59 51°16.775 2°52.888 20.027623 4.610636 33.38541 3.432426
2004-07-30 06:48:03 51°16.788 2°52.877 20.031263 4.612008 33.394301 3.466136
2004-07-30 06:48:09 51°16.806 2°52.86 20.031263 4.612008 33.394301 3.466136
2004-07-30 06:48:14 51°16.821 2°52.846 20.029443 4.61264 33.397761 3.365007
2004-07-30 06:48:18 51°16.832 2°52.835 20.029039 4.612851 33.3978 3.432426
2004-07-30 06:48:24 51°16.85 2°52.817 20.031263 4.612429 33.392707 3.432426
2004-07-30 06:48:29 51°16.865 2°52.802 20.031344 4.611796 33.387018 3.499845
2004-07-30 06:48:34 51°16.879 2°52.786 20.030859 4.610741 33.377352 3.533554
2004-07-30 06:48:39 51°16.894 2°52.771 20.030859 4.610741 33.377352 3.533554
2004-07-30 06:48:44 51°16.908 2°52.756 20.029888 4.610109 33.37222 3.600973
2004-07-30 06:48:49 51°16.923 2°52.741 20.029403 4.608843 33.361402 3.668392
2004-07-30 06:48:54 51°16.938 2°52.726 20.029484 4.607155 33.347721 3.499845
2004-07-30 06:48:59 51°16.953 2°52.712 20.031344 4.605678 33.334638 3.668392
2004-07-30 06:49:03 51°16.965 2°52.7 20.030333 4.604201 33.323224 3.702101
2004-07-30 06:49:09 51°16.984 2°52.683 20.030333 4.604201 33.323224 3.702101
2004-07-30 06:49:14 51°16.999 2°52.669 20.029322 4.602408 33.310358 3.76952
2004-07-30 06:49:19 51°17.015 2°52.655 20.028796 4.600931 33.297834 3.567264
2004-07-30 06:49:23 51°17.027 2°52.644 20.031263 4.600087 33.290439 3.533554
2004-07-30 06:49:29 51°17.046 2°52.626 20.032113 4.598715 33.279327 3.600973
2004-07-30 06:49:34 51°17.061 2°52.611 20.031991 4.597871 33.271933 3.600973
2004-07-30 06:49:39 51°17.076 2°52.596 20.031991 4.597871 33.271933 3.600973
2004-07-30 06:49:43 51°17.088 2°52.584 20.032477 4.596711 33.263641 3.634683
2004-07-30 06:49:49 51°17.106 2°52.566 20.030899 4.595867 33.255694 3.80323
2004-07-30 06:49:54 51°17.12 2°52.551 20.035672 4.595656 33.253984 3.600973
2004-07-30 06:49:59 51°17.135 2°52.536 20.036724 4.594285 33.242874 3.567264
2004-07-30 06:50:03 51°17.147 2°52.524 20.035268 4.594601 33.244883 3.735811
2004-07-30 06:50:10 51°17.168 2°52.503 20.035268 4.594601 33.244883 3.735811
2004-07-30 06:50:14 51°17.181 2°52.491 20.036724 4.593757 33.238046 3.668392
2004-07-30 06:50:19 51°17.196 2°52.477 20.036683 4.593335 33.233519 3.634683
2004-07-30 06:50:24 51°17.211 2°52.462 20.037088 4.593019 33.229292 3.600973
2004-07-30 06:50:29 51°17.226 2°52.448 20.037128 4.593019 33.228738 3.634683
2004-07-30 06:50:34 51°17.241 2°52.433 20.038624 4.593124 33.229592 3.499845
2004-07-30 06:50:39 51°17.256 2°52.418 20.038624 4.593124 33.229592 3.499845
2004-07-30 06:50:43 51°17.269 2°52.406 20.038907 4.592913 33.227329 3.600973
2004-07-30 06:50:49 51°17.287 2°52.388 20.038746 4.592913 33.226775 3.567264
2004-07-30 06:50:54 51°17.302 2°52.373 20.040161 4.593335 33.230747 3.499845
2004-07-30 06:50:59 51°17.317 2°52.357 20.040161 4.59323 33.229338 3.634683
2004-07-30 06:51:04 51°17.332 2°52.342 20.040444 4.593968 33.23532 3.600973
2004-07-30 06:51:09 51°17.347 2°52.327 20.040444 4.593968 33.23532 3.600973
2004-07-30 06:51:14 51°17.362 2°52.313 20.040242 4.594179 33.234811 3.634683
2004-07-30 06:51:19 51°17.378 2°52.298 20.040606 4.594707 33.240747 3.634683
2004-07-30 06:51:23 51°17.39 2°52.286 20.039393 4.594812 33.239938 3.499845
2004-07-30 06:51:29 51°17.408 2°52.268 20.038341 4.595129 33.242501 3.567264
2004-07-30 06:51:34 51°17.423 2°52.254 20.039716 4.595023 33.240538 3.668392
2004-07-30 06:51:39 51°17.438 2°52.239 20.039716 4.595023 33.240538 3.668392
2004-07-30 06:51:44 51°17.454 2°52.224 20.03911 4.595129 33.241392 3.567264
2004-07-30 06:51:49 51°17.469 2°52.209 20.038018 4.595023 33.241092 3.702101
2004-07-30 06:51:54 51°17.484 2°52.194 20.03458 4.595023 33.240538 3.533554
2004-07-30 06:51:59 51°17.498 2°52.179 20.035632 4.594601 33.238229 3.499845
2004-07-30 06:52:03 51°17.51 2°52.167 20.033367 4.593968 33.233102 3.499845
2004-07-30 06:52:09 51°17.528 2°52.148 20.033367 4.593968 33.233102 3.499845
2004-07-30 06:52:14 51°17.543 2°52.133 20.033003 4.59323 33.227675 3.567264
2004-07-30 06:52:19 51°17.558 2°52.118 20.031627 4.592808 33.225366 3.466136
2004-07-30 06:52:24 51°17.573 2°52.102 20.031142 4.591964 33.218531 3.600973
2004-07-30 06:52:29 51°17.588 2°52.087 20.030414 4.590804 33.211903 3.432426
2004-07-30 06:52:34 51°17.603 2°52.072 20.027623 4.589432 33.200241 3.499845
2004-07-30 06:52:39 51°17.618 2°52.056 20.027623 4.589432 33.200241 3.499845
2004-07-30 06:52:43 51°17.63 2°52.044 20.026774 4.588799 33.196223 3.499845
2004-07-30 06:52:49 51°17.648 2°52.026 20.026005 4.587428 33.185669 3.432426
2004-07-30 06:52:54 51°17.663 2°52.011 20.022769 4.586162 33.175971 3.466136
2004-07-30 06:52:59 51°17.678 2°51.996 20.024185 4.585213 33.168835 3.499845
2004-07-30 06:53:03 51°17.69 2°51.984 20.021475 4.584263 33.162253 3.466136
2004-07-30 06:53:09 51°17.708 2°51.966 20.021475 4.584263 33.162253 3.466136
2004-07-30 06:53:14 51°17.723 2°51.951 20.019735 4.582997 33.153661 3.432426
2004-07-30 06:53:19 51°17.738 2°51.936 20.019816 4.581837 33.144817 3.398717
2004-07-30 06:53:23 51°17.751 2°51.924 20.01925 4.580993 33.139641 3.331298
2004-07-30 06:53:29 51°17.768 2°51.906 20.018077 4.580466 33.13537 3.398717
2004-07-30 06:53:34 51°17.784 2°51.892 20.018643 4.5792 33.126777 3.567264
2004-07-30 06:53:39 51°17.799 2°51.878 20.018643 4.5792 33.126777 3.567264
2004-07-30 06:53:44 51°17.815 2°51.865 20.019533 4.578883 33.124214 3.600973
2004-07-30 06:53:49 51°17.831 2°51.855 20.021677 4.578039 33.118485 3.432426
2004-07-30 06:53:54 51°17.847 2°51.846 20.020261 4.577617 33.116173 3.499845
2004-07-30 06:53:59 51°17.864 2°51.839 20.021556 4.576985 33.111047 3.432426
2004-07-30 06:54:03 51°17.878 2°51.834 20.018198 4.576457 33.106776 3.432426
2004-07-30 06:54:09 51°17.898 2°51.828 20.018198 4.576457 33.106776 3.432426
2004-07-30 06:54:14 51°17.915 2°51.823 20.020261 4.57593 33.101952 3.365007
2004-07-30 06:54:19 51°17.932 2°51.819 20.015851 4.575824 33.099441 3.297589
2004-07-30 06:54:24 51°17.949 2°51.818 20.014921 4.575086 33.094014 3.466136
2004-07-30 06:54:29 51°17.966 2°51.818 20.018036 4.574558 33.090848 3.297589
2004-07-30 06:54:34 51°17.983 2°51.82 20.014071 4.57382 33.08542 3.398717
2004-07-30 06:54:39 51°18 2°51.823 20.014071 4.57382 33.08542 3.398717
2004-07-30 06:54:43 51°18.013 2°51.827 20.012453 4.57266 33.077129 3.466136
2004-07-30 06:54:49 51°18.033 2°51.835 20.01221 4.572027 33.073108 3.365007
2004-07-30 06:54:54 51°18.049 2°51.844 20.012534 4.570972 33.063462 3.398717
2004-07-30 06:54:59 51°18.064 2°51.855 20.00954 4.569811 33.054619 3.432426
2004-07-30 06:55:05 51°18.082 2°51.87 20.010552 4.569073 33.049192 3.398717
2004-07-30 06:55:09 51°18.093 2°51.882 20.010552 4.569073 33.049192 3.398717
2004-07-30 06:55:14 51°18.107 2°51.897 20.009783 4.567596 33.039441 3.466136
2004-07-30 06:55:19 51°18.12 2°51.914 20.010673 4.566647 33.031754 3.533554
2004-07-30 06:55:23 51°18.129 2°51.929 20.012898 4.565908 33.026878 3.398717
2004-07-30 06:55:29 51°18.143 2°51.952 20.008812 4.564853 33.017786 3.263879
2004-07-30 06:55:34 51°18.153 2°51.973 20.007719 4.563693 33.009494 3.365007
2004-07-30 06:55:39 51°18.163 2°51.995 20.007719 4.563693 33.009494 3.365007
2004-07-30 06:55:43 51°18.17 2°52.013 20.01039 4.562849 33.001561 3.432426
2004-07-30 06:55:49 51°18.18 2°52.041 20.008933 4.561372 32.990156 3.23017
2004-07-30 06:55:54 51°18.188 2°52.065 20.011765 4.560528 32.982774 3.331298
2004-07-30 06:55:59 51°18.195 2°52.09 20.0095 4.559685 32.977595 3.297589
2004-07-30 06:56:03 51°18.2 2°52.109 20.007436 4.558841 32.971864 3.23017
2004-07-30 06:56:08 51°18.207 2°52.134 20.007436 4.558841 32.971864 3.23017
2004-07-30 06:56:14 51°18.215 2°52.164 20.008124 4.558208 32.966741 3.19646
2004-07-30 06:56:19 51°18.221 2°52.189 20.006587 4.557047 32.957349 3.23017
2004-07-30 06:56:23 51°18.227 2°52.209 20.008124 4.556731 32.953687 3.23017
2004-07-30 06:56:29 51°18.235 2°52.239 20.007113 4.556098 32.948564 3.398717
2004-07-30 06:56:34 51°18.241 2°52.264 20.009419 4.55536 32.943138 3.263879
2004-07-30 06:56:39 51°18.247 2°52.289 20.009419 4.55536 32.943138 3.263879
2004-07-30 06:56:43 51°18.252 2°52.31 20.007719 4.554516 32.939057 3.129042
2004-07-30 06:56:49 51°18.259 2°52.34 20.007032 4.553988 32.934238 3.297589
2004-07-30 06:56:54 51°18.265 2°52.366 20.006627 4.553355 32.928566 3.19646
2004-07-30 06:56:59 51°18.271 2°52.391 20.008286 4.552828 32.924297 3.297589
2004-07-30 06:57:04 51°18.276 2°52.417 20.007072 4.552301 32.919479 3.19646
2004-07-30 06:57:09 51°18.282 2°52.443 20.007072 4.552301 32.919479 3.19646
2004-07-30 06:57:14 51°18.288 2°52.469 20.007922 4.55209 32.917771 3.061623
2004-07-30 06:57:19 51°18.293 2°52.494 20.007881 4.550929 32.90893 3.263879
2004-07-30 06:57:23 51°18.298 2°52.515 20.005089 4.550507 32.905516 3.095332
2004-07-30 06:57:29 51°18.305 2°52.546 20.005818 4.550085 32.902101 3.23017
2004-07-30 06:57:34 51°18.311 2°52.571 20.006587 4.549241 32.895272 3.162751
2004-07-30 06:57:39 51°18.317 2°52.597 20.006587 4.549241 32.895272 3.162751
2004-07-30 06:57:44 51°18.323 2°52.623 20.003633 4.548292 32.888139 3.19646
2004-07-30 06:57:49 51°18.329 2°52.648 20.007274 4.54787 32.885273 3.095332
2004-07-30 06:57:54 51°18.335 2°52.674 20.006303 4.547554 32.882164 3.19646
2004-07-30 06:57:59 51°18.341 2°52.7 20.006829 4.546815 32.876737 3.095332
2004-07-30 06:58:03 51°18.345 2°52.721 20.006465 4.546182 32.872165 3.061623
2004-07-30 06:58:09 51°18.352 2°52.752 20.006465 4.546182 32.872165 3.061623
2004-07-30 06:58:14 51°18.358 2°52.778 20.003511 4.54576 32.867653 3.297589
2004-07-30 06:58:19 51°18.364 2°52.804 20.003107 4.544706 32.859667 3.19646
2004-07-30 06:58:23 51°18.369 2°52.825 20.007113 4.544495 32.85796 3.129042
2004-07-30 06:58:29 51°18.376 2°52.856 20.004563 4.543862 32.853387 3.027913
2004-07-30 06:58:34 51°18.382 2°52.882 20.003026 4.543229 32.848267 3.129042
2004-07-30 06:58:39 51°18.387 2°52.908 20.003026 4.543229 32.848267 3.129042
2004-07-30 06:58:43 51°18.392 2°52.929 20.006384 4.542701 32.845096 3.129042
2004-07-30 06:58:49 51°18.399 2°52.959 20.003269 4.541857 32.838268 2.994204
2004-07-30 06:58:54 51°18.405 2°52.985 20.002217 4.541436 32.834306 3.095332
2004-07-30 06:58:59 51°18.41 2°53.011 20.002743 4.540064 32.82376 3.19646
2004-07-30 06:59:03 51°18.415 2°53.032 20.002985 4.54017 32.824613 3.027913
2004-07-30 06:59:09 51°18.422 2°53.063 20.002985 4.54017 32.824613 3.027913
2004-07-30 06:59:14 51°18.428 2°53.089 20.002783 4.539326 32.818334 3.129042
2004-07-30 06:59:19 51°18.434 2°53.115 20.003107 4.538376 32.811749 3.095332
2004-07-30 06:59:23 51°18.438 2°53.135 20.0025 4.537955 32.807788 3.027913
2004-07-30 06:59:29 51°18.445 2°53.167 20.001367 4.537427 32.802974 2.893076
2004-07-30 06:59:34 51°18.451 2°53.193 20.001124 4.536478 32.795294 2.994204
2004-07-30 06:59:39 51°18.457 2°53.218 20.001124 4.536478 32.795294 2.994204
2004-07-30 06:59:43 51°18.462 2°53.239 20.002055 4.535739 32.789321 2.960494
2004-07-30 06:59:49 51°18.469 2°53.27 20.002743 4.535739 32.789321 2.893076
2004-07-30 06:59:54 51°18.474 2°53.296 20.005009 4.535106 32.784749 2.893076
2004-07-30 06:59:59 51°18.48 2°53.322 20.005615 4.534474 32.77963 2.825657
2004-07-30 07:00:04 51°18.486 2°53.347 20.003107 4.533946 32.775911 2.994204
2004-07-30 07:00:10 51°18.493 2°53.379 20.003107 4.533946 32.775911 2.994204
2004-07-30 07:00:14 51°18.497 2°53.399 20.003997 4.533419 32.771645 2.825657
2004-07-30 07:00:19 51°18.503 2°53.425 20.002338 4.532364 32.762566 2.758238
2004-07-30 07:00:24 51°18.509 2°53.451 20.001974 4.532364 32.761472 3.129042
2004-07-30 07:00:29 51°18.515 2°53.477 20.001286 4.531625 32.754954 2.859366
2004-07-30 07:00:34 51°18.52 2°53.503 20.001367 4.530676 32.748916 2.825657
2004-07-30 07:00:39 51°18.526 2°53.529 20.001367 4.530676 32.748916 2.825657
2004-07-30 07:00:44 51°18.532 2°53.555 19.999263 4.529938 32.742397 2.825657
2004-07-30 07:00:49 51°18.538 2°53.58 20.000234 4.529516 32.738439 2.758238
2004-07-30 07:00:54 51°18.543 2°53.606 20.000153 4.528566 32.732401 2.690819
2004-07-30 07:00:59 51°18.549 2°53.632 19.999627 4.527723 32.725576 2.724529
2004-07-30 07:01:04 51°18.555 2°53.658 19.998332 4.52709 32.720458 2.791947
2004-07-30 07:01:10 51°18.562 2°53.689 19.998332 4.52709 32.720458 2.791947
2004-07-30 07:01:14 51°18.567 2°53.709 19.999384 4.525929 32.712713 2.724529
2004-07-30 07:01:19 51°18.573 2°53.735 19.996754 4.525402 32.707902 2.859366
2004-07-30 07:01:23 51°18.578 2°53.755 19.998534 4.524664 32.702477 2.65711
2004-07-30 07:01:29 51°18.585 2°53.786 19.996835 4.523925 32.696507 2.825657
2004-07-30 07:01:34 51°18.591 2°53.811 19.995904 4.523398 32.692242 2.690819
2004-07-30 07:01:39 51°18.598 2°53.837 19.995904 4.523398 32.692242 2.690819
2004-07-30 07:01:44 51°18.604 2°53.862 19.994852 4.522448 32.685657 2.724529
2004-07-30 07:01:50 51°18.612 2°53.893 19.995095 4.52171 32.680232 2.690819
2004-07-30 07:01:54 51°18.617 2°53.913 19.993112 4.521183 32.675422 2.65711
2004-07-30 07:01:59 51°18.624 2°53.938 19.992869 4.520444 32.670543 2.65711
2004-07-30 07:02:04 51°18.63 2°53.963 19.989308 4.5196 32.664265 2.555982
2004-07-30 07:02:09 51°18.637 2°53.989 19.989308 4.5196 32.664265 2.555982
2004-07-30 07:02:14 51°18.643 2°54.014 19.989146 4.518967 32.659148 2.690819
2004-07-30 07:02:19 51°18.65 2°54.039 19.989146 4.518124 32.653415 2.724529
2004-07-30 07:02:24 51°18.656 2°54.065 19.986434 4.517702 32.650004 2.589691
2004-07-30 07:02:30 51°18.663 2°54.095 19.984613 4.516752 32.643418 2.690819
2004-07-30 07:02:34 51°18.668 2°54.116 19.983601 4.515803 32.636833 2.589691
2004-07-30 07:02:39 51°18.675 2°54.141 19.983601 4.515803 32.636833 2.589691
2004-07-30 07:02:43 51°18.68 2°54.161 19.980646 4.514854 32.629157 2.690819
2004-07-30 07:02:49 51°18.688 2°54.191 19.979675 4.513799 32.622263 2.555982
2004-07-30 07:02:54 51°18.695 2°54.216 19.977853 4.51285 32.616222 2.555982
2004-07-30 07:02:59 51°18.702 2°54.242 19.977934 4.503778 32.543978 2.724529
2004-07-30 07:03:03 51°18.707 2°54.262 19.977408 4.510529 32.600182 2.589691
2004-07-30 07:03:09 51°18.715 2°54.292 19.977408 4.510529 32.600182 2.589691
2004-07-30 07:03:14 51°18.721 2°54.317 19.974979 4.509791 32.59639 2.6234
2004-07-30 07:03:19 51°18.727 2°54.342 19.971539 4.508841 32.58817 2.522272
2004-07-30 07:03:24 51°18.734 2°54.368 19.969514 4.508103 32.583832 2.488563
2004-07-30 07:03:30 51°18.741 2°54.398 19.968219 4.507365 32.578407 2.589691
2004-07-30 07:03:34 51°18.746 2°54.418 19.968219 4.503567 32.548794 2.522272
2004-07-30 07:03:39 51°18.753 2°54.444 19.968219 4.503567 32.548794 2.522272
2004-07-30 07:03:43 51°18.758 2°54.464 19.963806 4.50515 32.563217 2.522272
2004-07-30 07:03:49 51°18.765 2°54.494 19.965021 4.503884 32.555159 2.488563
2004-07-30 07:03:54 51°18.772 2°54.519 19.959555 4.50304 32.548336 2.488563
2004-07-30 07:03:59 51°18.778 2°54.544 19.960486 4.502302 32.543454 2.488563
2004-07-30 07:04:03 51°18.784 2°54.564 19.956235 4.501352 32.536865 2.454853
2004-07-30 07:04:09 51°18.791 2°54.595 19.956235 4.501352 32.536865 2.454853
2004-07-30 07:04:14 51°18.797 2°54.62 19.956356 4.500087 32.529349 2.555982
2004-07-30 07:04:19 51°18.803 2°54.646 19.952591 4.499032 32.521907 2.522272
2004-07-30 07:04:23 51°18.807 2°54.666 19.952267 4.497977 32.514465 2.421144
2004-07-30 07:04:29 51°18.815 2°54.697 19.948501 4.497239 32.510125 2.488563
2004-07-30 07:04:34 51°18.821 2°54.722 19.944613 4.495973 32.500977 2.522272
2004-07-30 07:04:39 51°18.827 2°54.748 19.944613 4.495973 32.500977 2.522272
2004-07-30 07:04:43 51°18.832 2°54.768 19.945545 4.494918 32.49462 2.421144
2004-07-30 07:04:50 51°18.841 2°54.803 19.940199 4.494074 32.489426 2.454853
2004-07-30 07:04:54 51°18.847 2°54.823 19.937931 4.492914 32.48113 2.454853
2004-07-30 07:04:59 51°18.853 2°54.848 19.930357 4.491965 32.476711 2.421144
2004-07-30 07:05:04 51°18.86 2°54.873 19.93056 4.490699 32.468104 2.522272
2004-07-30 07:05:10 51°18.868 2°54.902 19.93056 4.490699 32.468104 2.522272
2004-07-30 07:05:14 51°18.873 2°54.922 19.926388 4.489433 32.458954 2.488563
2004-07-30 07:05:19 51°18.88 2°54.948 19.919541 4.488273 32.452827 2.488563
2004-07-30 07:05:23 51°18.885 2°54.968 19.919055 4.486269 32.440417 2.387435
2004-07-30 07:05:29 51°18.892 2°54.998 19.911884 4.484898 32.430955 2.454853
2004-07-30 07:05:34 51°18.898 2°55.023 19.905078 4.483316 32.420871 2.353725
2004-07-30 07:05:39 51°18.905 2°55.049 19.905078 4.483316 32.420871 2.353725
2004-07-30 07:05:43 51°18.909 2°55.069 19.902808 4.481945 32.412492 2.353725
2004-07-30 07:05:49 51°18.917 2°55.099 19.901269 4.480257 32.402095 2.353725
2004-07-30 07:05:54 51°18.923 2°55.125 19.89515 4.479519 32.397749 2.286306
2004-07-30 07:05:59 51°18.929 2°55.15 19.888868 4.477198 32.383856 2.320016
2004-07-30 07:06:04 51°18.936 2°55.175 19.881897 4.475405 32.373144 2.320016
2004-07-30 07:06:09 51°18.943 2°55.2 19.881897 4.475405 32.373144 2.320016
2004-07-30 07:06:14 51°18.949 2°55.225 19.881572 4.474034 32.364218 2.286306
2004-07-30 07:06:19 51°18.956 2°55.25 19.881978 4.473401 32.361807 2.151469
2004-07-30 07:06:23 51°18.961 2°55.27 19.877276 4.471081 32.346825 2.151469
2004-07-30 07:06:29 51°18.969 2°55.3 19.869817 4.470131 32.342393 2.117759
2004-07-30 07:06:34 51°18.975 2°55.325 19.866046 4.468022 32.329656 2.286306
2004-07-30 07:06:39 51°18.981 2°55.35 19.866046 4.468022 32.329656 2.286306
2004-07-30 07:06:44 51°18.988 2°55.376 19.867182 4.467389 32.326159 2.218888
2004-07-30 07:06:50 51°18.996 2°55.406 19.858303 4.465912 32.316375 2.050341
2004-07-30 07:06:54 51°19.001 2°55.426 19.854288 4.464541 32.307986 2.08405
2004-07-30 07:06:59 51°19.008 2°55.451 19.848976 4.463276 32.302072 2.151469
2004-07-30 07:07:04 51°19.014 2°55.476 19.847841 4.462221 32.2957 2.117759
2004-07-30 07:07:09 51°19.021 2°55.502 19.847841 4.462221 32.2957 2.117759
2004-07-30 07:07:14 51°19.027 2°55.527 19.843055 4.461166 32.29041 2.08405
2004-07-30 07:07:19 51°19.033 2°55.553 19.839203 4.459901 32.283411 2.050341
2004-07-30 07:07:24 51°19.039 2°55.578 19.831253 4.45874 32.277265 2.050341
2004-07-30 07:07:29 51°19.046 2°55.604 19.828657 4.457791 32.271745 1.915503
2004-07-30 07:07:34 51°19.052 2°55.629 19.825452 4.456842 32.268387 1.881794
2004-07-30 07:07:39 51°19.058 2°55.655 19.825452 4.456842 32.268387 1.881794
2004-07-30 07:07:43 51°19.063 2°55.675 19.816608 4.456209 32.264886 1.814375
2004-07-30 07:07:49 51°19.071 2°55.706 19.814783 4.454732 32.257258 1.949212
2004-07-30 07:07:54 51°19.077 2°55.731 19.810807 4.453889 32.25367 1.949212
2004-07-30 07:07:59 51°19.084 2°55.757 19.801433 4.452939 32.249229 1.848084
2004-07-30 07:08:03 51°19.089 2°55.777 19.799851 4.451779 32.243619 2.117759
2004-07-30 07:08:09 51°19.097 2°55.808 19.799851 4.451779 32.243619 2.117759
2004-07-30 07:08:14 51°19.103 2°55.833 19.796564 4.451147 32.24282 1.915503
2004-07-30 07:08:19 51°19.11 2°55.859 19.795427 4.449986 32.236668 1.881794
2004-07-30 07:08:24 51°19.116 2°55.884 19.78455 4.449143 32.234159 1.982922
2004-07-30 07:08:29 51°19.122 2°55.91 19.784672 4.44851 32.232278 1.949212
2004-07-30 07:08:34 51°19.129 2°55.935 19.780613 4.44735 32.226124 1.881794
2004-07-30 07:08:39 51°19.135 2°55.96 19.780613 4.44735 32.226124 1.881794
2004-07-30 07:08:44 51°19.142 2°55.985 19.775498 4.446822 32.225096 1.982922
2004-07-30 07:08:49 51°19.148 2°56.01 19.777 4.445768 32.219795 1.848084
2004-07-30 07:08:54 51°19.155 2°56.036 19.775336 4.445557 32.22079 1.780665
2004-07-30 07:08:59 51°19.161 2°56.061 19.772454 4.444924 32.218907 1.915503
2004-07-30 07:09:04 51°19.168 2°56.087 19.7729 4.444186 32.215087 2.016631
2004-07-30 07:09:09 51°19.174 2°56.113 19.7729 4.444186 32.215087 2.016631
2004-07-30 07:09:14 51°19.18 2°56.139 19.768597 4.443764 32.215454 1.881794
2004-07-30 07:09:19 51°19.186 2°56.165 19.767379 4.443869 32.215227 1.881794
2004-07-30 07:09:23 51°19.191 2°56.185 19.765633 4.443342 32.213658 1.915503
2004-07-30 07:09:28 51°19.197 2°56.211 19.764943 4.443026 32.213257 1.848084
2004-07-30 07:09:34 51°19.204 2°56.241 19.765187 4.442815 32.212088 1.848084
2004-07-30 07:09:39 51°19.211 2°56.267 19.765187 4.442815 32.212088 1.848084
2004-07-30 07:09:44 51°19.218 2°56.292 19.765471 4.44292 32.214566 1.814375
2004-07-30 07:09:49 51°19.224 2°56.317 19.765106 4.442604 32.213624 1.915503
2004-07-30 07:09:54 51°19.23 2°56.342 19.76405 4.442498 32.214393 1.780665
2004-07-30 07:09:59 51°19.237 2°56.368 19.762588 4.442182 32.212369 1.949212
2004-07-30 07:10:05 51°19.244 2°56.399 19.763197 4.442076 32.210973 1.881794
2004-07-30 07:10:09 51°19.249 2°56.419 19.763197 4.442076 32.210973 1.881794
2004-07-30 07:10:14 51°19.255 2°56.445 19.762913 4.442498 32.214934 1.780665
2004-07-30 07:10:19 51°19.261 2°56.47 19.761939 4.442182 32.21291 1.746956
2004-07-30 07:10:24 51°19.267 2°56.496 19.76206 4.442182 32.213451 1.780665
2004-07-30 07:10:29 51°19.273 2°56.521 19.765268 4.442076 32.212596 1.780665
2004-07-30 07:10:34 51°19.279 2°56.547 19.763806 4.442076 32.213137 1.746956
2004-07-30 07:10:39 51°19.285 2°56.572 19.763806 4.442076 32.213137 1.746956
2004-07-30 07:10:43 51°19.29 2°56.593 19.763685 4.442287 32.214847 1.814375
2004-07-30 07:10:49 51°19.297 2°56.623 19.768354 4.442076 32.213678 1.780665
2004-07-30 07:10:54 51°19.303 2°56.649 19.768435 4.442287 32.215929 1.814375
2004-07-30 07:10:59 51°19.309 2°56.674 19.768597 4.442287 32.214306 1.814375
2004-07-30 07:11:03 51°19.314 2°56.694 19.769571 4.442498 32.216557 1.881794
2004-07-30 07:11:09 51°19.321 2°56.722 19.769571 4.442498 32.216557 1.881794
2004-07-30 07:11:15 51°19.326 2°56.748 19.767623 4.442709 32.216644 1.915503
2004-07-30 07:11:19 51°19.329 2°56.763 19.769815 4.442709 32.216644 1.848084
2004-07-30 07:11:24 51°19.332 2°56.781 19.774281 4.442604 32.215248 1.949212
2004-07-30 07:11:30 51°19.333 2°56.802 19.774524 4.442709 32.215562 1.915503
2004-07-30 07:11:34 51°19.332 2°56.815 19.771926 4.442709 32.215021 2.050341
2004-07-30 07:11:39 51°19.329 2°56.829 19.771926 4.442709 32.215021 2.050341
2004-07-30 07:11:43 51°19.327 2°56.84 19.781019 4.442498 32.212769 1.881794
2004-07-30 07:11:49 51°19.321 2°56.854 19.779517 4.443026 32.216503 1.915503
2004-07-30 07:11:54 51°19.316 2°56.864 19.77562 4.443026 32.213257 1.848084
2004-07-30 07:11:59 51°19.31 2°56.873 19.778827 4.443237 32.214967 1.915503
2004-07-30 07:12:03 51°19.305 2°56.879 19.780085 4.443553 32.215368 2.016631
2004-07-30 07:12:09 51°19.297 2°56.886 19.780085 4.443553 32.215368 2.016631
2004-07-30 07:12:14 51°19.29 2°56.89 19.781628 4.443658 32.2146 2.050341
2004-07-30 07:12:19 51°19.282 2°56.894 19.784347 4.443869 32.215768 1.949212
2004-07-30 07:12:23 51°19.276 2°56.895 19.784956 4.443342 32.212035 1.982922
2004-07-30 07:12:29 51°19.267 2°56.897 19.7811 4.443975 32.216623 1.915503
2004-07-30 07:12:34 51°19.26 2°56.896 19.783576 4.443553 32.212122 1.949212
2004-07-30 07:12:39 51°19.252 2°56.895 19.783576 4.443553 32.212122 1.949212
2004-07-30 07:12:45 51°19.244 2°56.892 19.788569 4.443342 32.210413 1.848084
2004-07-30 07:12:49 51°19.238 2°56.889 19.790476 4.443447 32.209104 1.881794
2004-07-30 07:12:54 51°19.231 2°56.885 19.789259 4.443764 32.211668 1.949212
2004-07-30 07:12:59 51°19.225 2°56.881 19.81385 4.443236 32.206313 1.915503
2004-07-30 07:13:04 51°19.218 2°56.875 19.799283 4.443447 32.207482 1.915503
2004-07-30 07:13:09 51°19.212 2°56.869 19.799283 4.443447 32.207482 1.915503
2004-07-30 07:13:14 51°19.206 2°56.862 19.810401 4.443342 32.205005 1.982922
2004-07-30 07:13:19 51°19.201 2°56.855 19.798877 4.443342 32.203924 1.915503
2004-07-30 07:13:23 51°19.197 2°56.848 19.802975 4.443236 32.200367 1.780665
2004-07-30 07:13:30 51°19.191 2°56.837 19.809021 4.443447 32.195592 1.915503
2004-07-30 07:13:34 51°19.187 2°56.83 19.81669 4.443236 32.192262 1.848084
2004-07-30 07:13:39 51°19.183 2°56.821 19.81669 4.443236 32.192262 1.848084
2004-07-30 07:13:43 51°19.181 2°56.813 19.805491 4.444185 32.199411 1.848084
2004-07-30 07:13:48 51°19.178 2°56.803 19.805207 4.443763 32.197074 1.848084
2004-07-30 07:13:54 51°19.175 2°56.79 19.799851 4.443869 32.196848 1.848084
2004-07-30 07:13:59 51°19.173 2°56.779 19.804964 4.443869 32.194147 1.814375
2004-07-30 07:14:05 51°19.172 2°56.766 19.799364 4.443658 32.191899 1.848084
2004-07-30 07:14:09 51°19.172 2°56.757 19.799364 4.443658 32.191899 1.848084
2004-07-30 07:14:15 51°19.173 2°56.744 19.81243 4.443763 32.194913 1.780665
2004-07-30 07:14:19 51°19.173 2°56.736 19.809346 4.443869 32.194687 1.814375
2004-07-30 07:14:25 51°19.174 2°56.725 19.799242 4.443658 32.194059 1.982922
2004-07-30 07:14:29 51°19.175 2°56.717 19.794048 4.443447 32.193971 1.713247
2004-07-30 07:14:34 51°19.176 2°56.708 19.792668 4.443342 32.193117 1.679537
2004-07-30 07:14:39 51°19.178 2°56.698 19.792668 4.443342 32.193117 1.679537
2004-07-30 07:14:45 51°19.179 2°56.687 19.789259 4.443447 32.191811 1.814375
2004-07-30 07:14:49 51°19.18 2°56.68 19.791531 4.443131 32.190868 1.713247
2004-07-30 07:14:54 51°19.181 2°56.671 19.788974 4.44292 32.192941 1.713247
2004-07-30 07:14:59 51°19.182 2°56.662 19.786783 4.443131 32.197351 1.746956
2004-07-30 07:15:04 51°19.182 2°56.652 19.786296 4.442709 32.195014 1.746956
2004-07-30 07:15:09 51°19.182 2°56.643 19.786296 4.442709 32.195014 1.746956
2004-07-30 07:15:14 51°19.181 2°56.633 19.786296 4.442709 32.196635 1.848084
2004-07-30 07:15:19 51°19.18 2°56.624 19.785119 4.442709 32.197716 1.848084
2004-07-30 07:15:23 51°19.179 2°56.618 19.787229 4.442603 32.197402 1.848084
2004-07-30 07:15:30 51°19.176 2°56.609 19.788041 4.442076 32.19475 1.814375
2004-07-30 07:15:34 51°19.175 2°56.604 19.788122 4.442076 32.195291 1.814375
2004-07-30 07:15:39 51°19.173 2°56.6 19.788122 4.442076 32.195291 1.814375
2004-07-30 07:15:43 51°19.172 2°56.597 19.791004 4.441865 32.194662 1.848084
2004-07-30 07:15:49 51°19.17 2°56.593 19.790557 4.442182 32.197226 1.780665
2004-07-30 07:15:54 51°19.168 2°56.591 19.793966 4.442182 32.197226 1.848084
2004-07-30 07:15:59 51°19.166 2°56.589 19.791775 4.442182 32.196145 1.848084
2004-07-30 07:16:04 51°19.164 2°56.588 19.794413 4.442498 32.198169 1.915503
2004-07-30 07:16:09 51°19.163 2°56.586 19.794413 4.442498 32.198169 1.915503
2004-07-30 07:16:14 51°19.161 2°56.585 19.793358 4.442393 32.196774 1.881794
2004-07-30 07:16:19 51°19.159 2°56.583 19.793276 4.44292 32.199965 1.881794
2004-07-30 07:16:25 51°19.157 2°56.582 19.791978 4.44292 32.198884 1.881794
2004-07-30 07:16:30 51°19.155 2°56.58 19.791288 4.442814 32.19857 1.848084
2004-07-30 07:16:34 51°19.153 2°56.58 19.788569 4.442814 32.19749 2.016631
2004-07-30 07:16:39 51°19.152 2°56.578 19.788569 4.442814 32.19749 2.016631
2004-07-30 07:16:43 51°19.15 2°56.577 19.790801 4.443131 32.201134 1.814375
2004-07-30 07:16:49 51°19.148 2°56.576 19.788203 4.442709 32.197716 2.016631
2004-07-30 07:16:54 51°19.146 2°56.574 19.788893 4.44292 32.198884 1.848084
2004-07-30 07:16:59 51°19.144 2°56.573 19.787919 4.443236 32.201989 1.780665
2004-07-30 07:17:03 51°19.142 2°56.572 19.787067 4.443236 32.201989 1.982922
2004-07-30 07:17:09 51°19.14 2°56.571 19.787067 4.443236 32.201989 1.982922
2004-07-30 07:17:14 51°19.138 2°56.57 19.784429 4.443025 32.201361 1.848084
2004-07-30 07:17:19 51°19.136 2°56.568 19.785037 4.443025 32.201901 1.881794
2004-07-30 07:17:23 51°19.134 2°56.567 19.782277 4.443131 32.202756 2.016631
2004-07-30 07:17:29 51°19.132 2°56.566 19.781993 4.443131 32.203296 1.848084
2004-07-30 07:17:34 51°19.13 2°56.564 19.781384 4.443025 32.202982 1.814375
2004-07-30 07:17:39 51°19.128 2°56.563 19.781384 4.443025 32.202982 1.814375
2004-07-30 07:17:44 51°19.125 2°56.562 19.780776 4.442709 32.201499 1.881794
2004-07-30 07:17:49 51°19.123 2°56.561 19.783049 4.442709 32.20204 1.848084
2004-07-30 07:17:54 51°19.121 2°56.56 19.780126 4.442498 32.201412 1.915503
2004-07-30 07:17:59 51°19.119 2°56.558 19.780329 4.44292 32.205912 1.982922
2004-07-30 07:18:05 51°19.117 2°56.557 19.780167 4.442498 32.201953 1.881794
2004-07-30 07:18:07 51°19.116 2°56.556 19.780167 4.442498 32.201953 1.881794
2004-07-30 07:18:14 51°19.113 2°56.555 19.779192 4.442393 32.202179 2.050341
2004-07-30 07:18:19 51°19.111 2°56.553 19.77903 4.442709 32.205284 1.949212
2004-07-30 07:18:24 51°19.108 2°56.552 19.779639 4.442393 32.20272 1.915503
2004-07-30 07:18:29 51°19.106 2°56.551 19.780004 4.442604 32.204429 2.08405
2004-07-30 07:18:34 51°19.104 2°56.549 19.77972 4.442393 32.203801 2.151469
2004-07-30 07:18:39 51°19.102 2°56.548 19.77972 4.442393 32.203801 2.151469
2004-07-30 07:18:43 51°19.101 2°56.547 19.779801 4.442393 32.203261 2.050341
2004-07-30 07:18:49 51°19.098 2°56.545 19.778502 4.442393 32.203801 1.881794
2004-07-30 07:18:54 51°19.096 2°56.544 19.777528 4.442393 32.204342 2.050341
2004-07-30 07:18:59 51°19.093 2°56.542 19.776229 4.442498 32.204656 1.982922
2004-07-30 07:19:03 51°19.091 2°56.54 19.775945 4.442287 32.201865 1.881794
2004-07-30 07:19:10 51°19.087 2°56.537 19.775945 4.442287 32.201865 1.881794
2004-07-30 07:19:14 51°19.085 2°56.535 19.777975 4.442604 32.205511 1.949212
2004-07-30 07:19:19 51°19.081 2°56.531 19.777812 4.442182 32.203173 2.08405
2004-07-30 07:19:23 51°19.078 2°56.528 19.778827 4.442182 32.204255 2.117759
2004-07-30 07:19:29 51°19.074 2°56.523 19.779517 4.442076 32.203941 2.016631
2004-07-30 07:19:34 51°19.07 2°56.518 19.781019 4.442393 32.206505 1.982922
2004-07-30 07:19:39 51°19.067 2°56.513 19.781019 4.442393 32.206505 1.982922
2004-07-30 07:19:43 51°19.064 2°56.508 19.78248 4.442287 32.204028 2.08405
2004-07-30 07:19:49 51°19.06 2°56.501 19.783454 4.442287 32.20511 2.151469
2004-07-30 07:19:54 51°19.057 2°56.494 19.783373 4.442498 32.205738 2.185178
2004-07-30 07:19:59 51°19.054 2°56.487 19.786702 4.442393 32.203801 2.117759
2004-07-30 07:20:03 51°19.052 2°56.481 19.790395 4.442498 32.204656 2.08405
2004-07-30 07:20:10 51°19.049 2°56.471 19.790395 4.442498 32.204656 2.08405
2004-07-30 07:20:14 51°19.047 2°56.465 19.783373 4.442182 32.20101 1.949212
2004-07-30 07:20:19 51°19.045 2°56.457 19.785687 4.442709 32.203662 2.016631
2004-07-30 07:20:23 51°19.044 2°56.45 19.784347 4.442604 32.203348 2.08405
2004-07-30 07:20:29 51°19.042 2°56.441 19.785484 4.443025 32.204063 1.848084
2004-07-30 07:20:34 51°19.042 2°56.433 19.785403 4.442709 32.201499 2.151469
2004-07-30 07:20:39 51°19.041 2°56.424 19.785403 4.442709 32.201499 2.151469
2004-07-30 07:20:44 51°19.041 2°56.417 19.782683 4.44292 32.202668 2.185178
2004-07-30 07:20:49 51°19.041 2°56.409 19.780735 4.442814 32.202895 1.949212
2004-07-30 07:20:54 51°19.042 2°56.401 19.782277 4.442814 32.202895 1.881794
2004-07-30 07:20:59 51°19.043 2°56.394 19.779964 4.443025 32.205145 2.050341
2004-07-30 07:21:05 51°19.044 2°56.385 19.779964 4.442604 32.202807 2.050341
2004-07-30 07:21:09 51°19.046 2°56.38 19.779964 4.442604 32.202807 2.050341
2004-07-30 07:21:14 51°19.047 2°56.374 19.776026 4.44292 32.204831 2.08405
2004-07-30 07:21:19 51°19.05 2°56.368 19.777082 4.442076 32.199615 1.982922
2004-07-30 07:21:25 51°19.053 2°56.362 19.774808 4.442287 32.201865 2.117759
2004-07-30 07:21:29 51°19.055 2°56.357 19.774971 4.442498 32.203575 2.08405
2004-07-30 07:21:34 51°19.058 2°56.352 19.774037 4.442182 32.202632 2.117759
2004-07-30 07:21:39 51°19.061 2°56.347 19.774037 4.442182 32.202632 2.117759
2004-07-30 07:21:43 51°19.063 2°56.343 19.771398 4.441865 32.200609 2.050341
2004-07-30 07:21:49 51°19.067 2°56.337 19.773063 4.441865 32.202231 2.050341
2004-07-30 07:21:54 51°19.071 2°56.333 19.773063 4.44176 32.202998 2.117759
2004-07-30 07:21:59 51°19.074 2°56.328 19.772129 4.44176 32.202998 2.151469
2004-07-30 07:22:03 51°19.077 2°56.325 19.771155 4.441549 32.202911 2.08405
2004-07-30 07:22:09 51°19.082 2°56.321 19.771155 4.441549 32.202911 2.08405
2004-07-30 07:22:14 51°19.085 2°56.318 19.772697 4.441443 32.202597 2.117759
2004-07-30 07:22:19 51°19.089 2°56.315 19.772129 4.441654 32.203766 2.08405
2004-07-30 07:22:24 51°19.092 2°56.312 19.774646 4.441654 32.204307 2.151469
2004-07-30 07:22:29 51°19.095 2°56.309 19.77152 4.441549 32.203452 2.016631
2004-07-30 07:22:34 51°19.097 2°56.306 19.770627 4.44176 32.203539 2.050341
2004-07-30 07:22:39 51°19.1 2°56.302 19.770627 4.44176 32.203539 2.050341
2004-07-30 07:22:43 51°19.102 2°56.3 19.773063 4.441865 32.205476 2.08405
2004-07-30 07:22:49 51°19.104 2°56.296 19.771764 4.44176 32.20408 2.117759
2004-07-30 07:22:54 51°19.106 2°56.292 19.771398 4.441865 32.204394 2.117759
2004-07-30 07:22:59 51°19.108 2°56.288 19.771845 4.441549 32.202911 1.949212
2004-07-30 07:23:03 51°19.109 2°56.285 19.772251 4.441971 32.206331 2.08405
2004-07-30 07:23:09 51°19.111 2°56.28 19.772251 4.441971 32.206331 2.08405
2004-07-30 07:23:14 51°19.113 2°56.276 19.772454 4.44176 32.205162 2.050341
2004-07-30 07:23:19 51°19.114 2°56.272 19.773063 4.441971 32.207413 2.08405
2004-07-30 07:23:23 51°19.115 2°56.268 19.772291 4.441865 32.207099 2.218888
2004-07-30 07:23:29 51°19.116 2°56.263 19.772535 4.441971 32.207413 2.08405
2004-07-30 07:23:34 51°19.116 2°56.258 19.773185 4.44176 32.206244 1.982922
2004-07-30 07:23:39 51°19.117 2°56.254 19.773185 4.44176 32.206244 1.982922
2004-07-30 07:23:43 51°19.117 2°56.25 19.773591 4.442182 32.208582 2.08405
2004-07-30 07:23:49 51°19.117 2°56.245 19.773509 4.442076 32.207727 2.050341
2004-07-30 07:23:54 51°19.117 2°56.241 19.773591 4.441971 32.206872 2.050341
2004-07-30 07:23:59 51°19.117 2°56.236 19.77152 4.442076 32.207186 2.016631
2004-07-30 07:24:03 51°19.117 2°56.233 19.772454 4.442182 32.208041 2.016631
2004-07-30 07:24:09 51°19.116 2°56.228 19.772454 4.442182 32.208041 2.016631
2004-07-30 07:24:14 51°19.116 2°56.225 19.770952 4.442287 32.209436 2.117759
2004-07-30 07:24:19 51°19.115 2°56.223 19.771114 4.442393 32.20975 2.016631
2004-07-30 07:24:23 51°19.114 2°56.22 19.769856 4.442393 32.20975 2.117759
2004-07-30 07:24:29 51°19.113 2°56.218 19.770505 4.442287 32.210518 1.982922
2004-07-30 07:24:34 51°19.112 2°56.217 19.771764 4.442393 32.210832 1.949212
2004-07-30 07:24:39 51°19.11 2°56.215 19.771764 4.442393 32.210832 1.949212
2004-07-30 07:24:43 51°19.109 2°56.215 19.773306 4.442287 32.209977 2.050341
2004-07-30 07:24:49 51°19.107 2°56.214 19.772616 4.442287 32.210518 1.982922
2004-07-30 07:24:54 51°19.105 2°56.214 19.773347 4.442498 32.211687 1.949212
2004-07-30 07:24:59 51°19.104 2°56.214 19.772697 4.442287 32.209977 1.848084
2004-07-30 07:25:04 51°19.102 2°56.214 19.772454 4.442393 32.210832 1.982922
2004-07-30 07:25:09 51°19.1 2°56.215 19.772454 4.442393 32.210832 1.982922
2004-07-30 07:25:15 51°19.097 2°56.216 19.770546 4.442709 32.212315 2.050341
2004-07-30 07:25:19 51°19.095 2°56.217 19.77148 4.442604 32.212001 1.848084
2004-07-30 07:25:25 51°19.093 2°56.219 19.769571 4.442287 32.209977 2.016631
2004-07-30 07:25:30 51°19.091 2°56.22 19.769409 4.44292 32.215107 1.915503
2004-07-30 07:25:35 51°19.089 2°56.221 19.768354 4.442709 32.213397 1.949212
2004-07-30 07:25:39 51°19.088 2°56.222 19.768354 4.442709 32.213397 1.949212
2004-07-30 07:25:45 51°19.086 2°56.222 19.766851 4.442498 32.212228 1.949212
2004-07-30 07:25:50 51°19.084 2°56.221 19.768069 4.442709 32.214479 2.08405
2004-07-30 07:25:55 51°19.082 2°56.219 19.767014 4.442604 32.214165 1.949212
2004-07-30 07:26:00 51°19.081 2°56.217 19.766242 4.442287 32.2116 1.982922
2004-07-30 07:26:04 51°19.08 2°56.216 19.768597 4.442393 32.212997 1.915503
2004-07-30 07:26:10 51°19.078 2°56.214 19.768597 4.442393 32.212997 1.915503
2004-07-30 07:26:14 51°19.076 2°56.213 19.765268 4.442287 32.212142 2.08405
2004-07-30 07:26:18 51°19.075 2°56.211 19.76876 4.442709 32.215021 1.915503
2004-07-30 07:26:23 51°19.074 2°56.209 19.768151 4.442604 32.215248 2.151469
2004-07-30 07:26:29 51°19.072 2°56.207 19.767907 4.442393 32.21462 1.881794
2004-07-30 07:26:34 51°19.07 2°56.205 19.770262 4.442182 32.211828 2.050341
2004-07-30 07:26:39 51°19.068 2°56.203 19.770262 4.442182 32.211828 2.050341
2004-07-30 07:26:44 51°19.067 2°56.202 19.766486 4.442287 32.213224 2.016631
2004-07-30 07:26:49 51°19.065 2°56.2 19.768881 4.442604 32.215248 1.949212
2004-07-30 07:26:54 51°19.063 2°56.198 19.767907 4.442287 32.213224 1.982922
2004-07-30 07:26:59 51°19.062 2°56.196 19.767623 4.442709 32.215562 2.016631
2004-07-30 07:27:05 51°19.059 2°56.194 19.767298 4.441971 32.210659 1.982922
2004-07-30 07:27:09 51°19.058 2°56.193 19.767298 4.441971 32.210659 1.982922
2004-07-30 07:27:14 51°19.057 2°56.191 19.769937 4.442287 32.213224 2.117759
2004-07-30 07:27:19 51°19.055 2°56.189 19.766851 4.442393 32.214079 1.881794
2004-07-30 07:27:23 51°19.053 2°56.188 19.766324 4.442393 32.212997 1.949212
2004-07-30 07:27:29 51°19.051 2°56.186 19.767907 4.442287 32.212683 1.949212
2004-07-30 07:27:34 51°19.05 2°56.184 19.767826 4.4406 32.198462 1.915503
2004-07-30 07:27:39 51°19.048 2°56.182 19.767826 4.4406 32.198462 1.915503
2004-07-30 07:27:45 51°19.046 2°56.18 19.767217 4.429525 32.10925 1.949212
2004-07-30 07:27:47 51°19.045 2°56.179 19.768881 4.439861 32.193018 1.915503
2004-07-30 07:27:54 51°19.042 2°56.177 19.769571 4.442604 32.215789 2.08405
2004-07-30 07:27:59 51°19.041 2°56.175 19.768354 4.442498 32.214393 2.016631
2004-07-30 07:28:05 51°19.038 2°56.172 19.767014 4.442498 32.214393 2.117759
2004-07-30 07:28:10 51°19.037 2°56.171 19.767014 4.442498 32.214393 2.117759
2004-07-30 07:28:14 51°19.035 2°56.169 19.766405 4.442498 32.214393 1.881794
2004-07-30 07:28:19 51°19.033 2°56.168 19.768638 4.442815 32.215876 1.814375
2004-07-30 07:28:24 51°19.031 2°56.166 19.765309 4.442393 32.212997 1.982922
2004-07-30 07:28:29 51°19.029 2°56.164 19.765633 4.442604 32.215789 1.915503
2004-07-30 07:28:34 51°19.028 2°56.162 19.765715 4.442498 32.214393 1.982922
2004-07-30 07:28:39 51°19.026 2°56.16 19.765715 4.442498 32.214393 1.982922
2004-07-30 07:28:43 51°19.024 2°56.159 19.765106 4.442076 32.212055 1.848084
2004-07-30 07:28:49 51°19.022 2°56.157 19.766242 4.442709 32.216644 2.016631
2004-07-30 07:28:54 51°19.02 2°56.155 19.766242 4.442182 32.21291 1.982922
2004-07-30 07:28:59 51°19.018 2°56.153 19.765877 4.442498 32.215475 1.982922
2004-07-30 07:29:05 51°19.016 2°56.15 19.764862 4.442287 32.213765 1.915503
2004-07-30 07:29:09 51°19.014 2°56.149 19.764862 4.442287 32.213765 1.915503
2004-07-30 07:29:14 51°19.013 2°56.147 19.767379 4.442393 32.21462 2.016631
2004-07-30 07:29:19 51°19.011 2°56.145 19.765633 4.442287 32.213765 2.050341
2004-07-30 07:29:25 51°19.008 2°56.143 19.766689 4.442393 32.215161 1.982922
2004-07-30 07:29:30 51°19.006 2°56.141 19.766242 4.442287 32.214306 1.915503
2004-07-30 07:29:34 51°19.005 2°56.139 19.766689 4.442393 32.21462 1.814375
2004-07-30 07:29:39 51°19.003 2°56.137 19.766689 4.442393 32.21462 1.814375
2004-07-30 07:29:43 51°19.002 2°56.136 19.766851 4.434799 32.153604 2.016631
2004-07-30 07:29:49 51°18.999 2°56.133 19.76746 4.442393 32.21462 1.881794
2004-07-30 07:29:54 51°18.997 2°56.131 19.768597 4.442498 32.214393 1.848084
2004-07-30 07:29:59 51°18.995 2°56.129 19.767298 4.442393 32.214079 1.814375
2004-07-30 07:30:05 51°18.993 2°56.127 19.767623 4.435642 32.159363 1.780665
2004-07-30 07:30:09 51°18.991 2°56.125 19.767623 4.435642 32.159363 1.780665
2004-07-30 07:30:14 51°18.989 2°56.123 19.767014 4.442287 32.212683 1.814375
2004-07-30 07:30:19 51°18.987 2°56.121 19.768272 4.442287 32.213224 1.949212
2004-07-30 07:30:23 51°18.986 2°56.12 19.769896 4.442498 32.215475 1.881794
2004-07-30 07:30:29 51°18.983 2°56.117 19.76876 4.442182 32.212369 1.780665
2004-07-30 07:30:34 51°18.981 2°56.115 19.770383 4.442393 32.213538 1.780665
2004-07-30 07:30:39 51°18.979 2°56.113 19.770383 4.442393 32.213538 1.780665
2004-07-30 07:30:45 51°18.977 2°56.111 19.770546 4.442393 32.214079 1.949212
2004-07-30 07:30:49 51°18.975 2°56.109 19.772982 4.44292 32.216731 1.780665
2004-07-30 07:30:54 51°18.973 2°56.107 19.773225 4.442604 32.214707 1.982922
2004-07-30 07:30:59 51°18.971 2°56.105 19.774362 4.442498 32.212769 1.814375
2004-07-30 07:31:04 51°18.969 2°56.102 19.775336 4.442815 32.215334 1.881794
2004-07-30 07:31:09 51°18.967 2°56.1 19.775336 4.442815 32.215334 1.881794
2004-07-30 07:31:14 51°18.965 2°56.098 19.774727 4.442815 32.215334 1.982922
2004-07-30 07:31:19 51°18.963 2°56.096 19.774565 4.442393 32.210291 1.848084
2004-07-30 07:31:23 51°18.961 2°56.094 19.773428 4.443237 32.216049 1.848084
2004-07-30 07:31:29 51°18.959 2°56.091 19.773956 4.443131 32.215194 2.016631
2004-07-30 07:31:34 51°18.957 2°56.089 19.772982 4.442709 32.211233 2.08405
2004-07-30 07:31:39 51°18.955 2°56.087 19.772982 4.442709 32.211233 2.08405
2004-07-30 07:31:42 51°18.954 2°56.085 19.772738 4.44292 32.212943 1.949212
2004-07-30 07:31:49 51°18.951 2°56.082 19.773225 4.443026 32.213798 2.117759
2004-07-30 07:31:54 51°18.949 2°56.08 19.774565 4.443026 32.214339 1.915503
2004-07-30 07:31:59 51°18.947 2°56.078 19.775945 4.442709 32.211233 1.949212
2004-07-30 07:32:05 51°18.945 2°56.075 19.775701 4.443026 32.214339 1.949212
2004-07-30 07:32:10 51°18.943 2°56.073 19.775701 4.443026 32.214339 1.949212
2004-07-30 07:32:14 51°18.941 2°56.071 19.776148 4.443131 32.215735 1.949212
2004-07-30 07:32:19 51°18.939 2°56.068 19.774037 4.443026 32.213798 2.016631
2004-07-30 07:32:24 51°18.937 2°56.066 19.773875 4.443131 32.214653 2.016631
2004-07-30 07:32:29 51°18.935 2°56.064 19.774402 4.44292 32.212943 1.949212
2004-07-30 07:32:34 51°18.933 2°56.061 19.775417 4.44292 32.212943 2.016631
2004-07-30 07:32:38 51°18.932 2°56.059 19.775417 4.44292 32.212943 2.016631
2004-07-30 07:32:44 51°18.93 2°56.057 19.774037 4.442604 32.209838 1.881794
2004-07-30 07:32:49 51°18.928 2°56.054 19.77493 4.443026 32.212716 2.08405
2004-07-30 07:32:54 51°18.926 2°56.052 19.774199 4.443026 32.213257 2.016631
2004-07-30 07:32:59 51°18.924 2°56.049 19.773063 4.443131 32.214653 2.016631
2004-07-30 07:33:05 51°18.922 2°56.046 19.773185 4.442815 32.212088 1.848084
2004-07-30 07:33:09 51°18.921 2°56.045 19.773185 4.442815 32.212088 1.848084
2004-07-30 07:33:14 51°18.919 2°56.042 19.772454 4.442815 32.212088 1.780665
2004-07-30 07:33:19 51°18.917 2°56.04 19.771683 4.44292 32.212943 2.016631
2004-07-30 07:33:24 51°18.915 2°56.037 19.772616 4.442815 32.21317 1.881794
2004-07-30 07:33:30 51°18.913 2°56.034 19.772373 4.442815 32.212629 1.881794
2004-07-30 07:33:34 51°18.911 2°56.033 19.773185 4.44292 32.213484 1.982922
2004-07-30 07:33:39 51°18.909 2°56.03 19.773185 4.44292 32.213484 1.982922
2004-07-30 07:33:43 51°18.908 2°56.028 19.773225 4.442815 32.21317 1.780665
2004-07-30 07:33:49 51°18.906 2°56.025 19.774281 4.44292 32.214566 1.949212
2004-07-30 07:33:55 51°18.903 2°56.022 19.77221 4.442709 32.212315 1.982922
2004-07-30 07:33:59 51°18.902 2°56.02 19.772373 4.442709 32.212315 1.982922
2004-07-30 07:34:05 51°18.9 2°56.018 19.771317 4.442815 32.212629 1.915503
2004-07-30 07:34:09 51°18.898 2°56.016 19.771317 4.442815 32.212629 1.915503
2004-07-30 07:34:14 51°18.896 2°56.013 19.773753 4.442709 32.211774 1.982922
2004-07-30 07:34:19 51°18.894 2°56.011 19.775458 4.442604 32.21146 2.117759
2004-07-30 07:34:25 51°18.892 2°56.008 19.77148 4.442604 32.21146 1.949212
2004-07-30 07:34:30 51°18.89 2°56.005 19.771033 4.44292 32.214566 1.881794
2004-07-30 07:34:34 51°18.889 2°56.003 19.771926 4.44292 32.215107 2.117759
2004-07-30 07:34:39 51°18.887 2°56.001 19.771926 4.44292 32.215107 2.117759
2004-07-30 07:34:43 51°18.885 2°55.999 19.772454 4.442604 32.21146 2.117759
2004-07-30 07:34:49 51°18.883 2°55.996 19.77148 4.44292 32.214025 2.016631
2004-07-30 07:34:55 51°18.881 2°55.993 19.771317 4.442815 32.21317 2.016631
2004-07-30 07:34:59 51°18.879 2°55.991 19.772454 4.442709 32.212856 2.016631
2004-07-30 07:35:05 51°18.877 2°55.988 19.772291 4.442815 32.214793 2.016631
2004-07-30 07:35:09 51°18.875 2°55.986 19.772291 4.442815 32.214793 2.016631
2004-07-30 07:35:14 51°18.873 2°55.984 19.773428 4.442182 32.209123 1.915503
2004-07-30 07:35:19 51°18.871 2°55.981 19.772291 4.442604 32.212542 1.881794
2004-07-30 07:35:23 51°18.87 2°55.979 19.770424 4.442709 32.212856 2.08405
2004-07-30 07:35:30 51°18.867 2°55.976 19.772251 4.442498 32.211687 1.982922
2004-07-30 07:35:34 51°18.866 2°55.974 19.771764 4.442498 32.211687 1.881794
2004-07-30 07:35:39 51°18.864 2°55.971 19.771764 4.442498 32.211687 1.881794
2004-07-30 07:35:44 51°18.862 2°55.969 19.772373 4.442393 32.210291 1.982922
2004-07-30 07:35:49 51°18.86 2°55.967 19.772251 4.442287 32.209977 1.982922
2004-07-30 07:35:54 51°18.858 2°55.964 19.771398 4.442287 32.209977 2.016631
2004-07-30 07:35:59 51°18.856 2°55.962 19.772819 4.442604 32.212001 1.949212
2004-07-30 07:36:03 51°18.855 2°55.959 19.773591 4.442604 32.212542 2.016631
2004-07-30 07:36:09 51°18.852 2°55.956 19.773591 4.442604 32.212542 2.016631
2004-07-30 07:36:14 51°18.85 2°55.954 19.771642 4.442076 32.208809 2.016631
2004-07-30 07:36:19 51°18.849 2°55.952 19.773225 4.442604 32.212001 1.982922
2004-07-30 07:36:23 51°18.847 2°55.949 19.771845 4.442604 32.212001 1.881794
2004-07-30 07:36:29 51°18.845 2°55.946 19.772454 4.442498 32.211146 1.982922
2004-07-30 07:36:34 51°18.843 2°55.944 19.772535 4.442604 32.212001 2.08405
2004-07-30 07:36:39 51°18.841 2°55.941 19.772535 4.442604 32.212001 2.08405
2004-07-30 07:36:44 51°18.84 2°55.939 19.773591 4.443131 32.215735 2.016631
2004-07-30 07:36:49 51°18.838 2°55.936 19.772819 4.442604 32.212542 1.949212
2004-07-30 07:36:55 51°18.835 2°55.933 19.77221 4.442709 32.212856 2.016631
2004-07-30 07:36:59 51°18.834 2°55.931 19.772291 4.442498 32.210605 2.08405
2004-07-30 07:37:03 51°18.833 2°55.929 19.770871 4.442604 32.212001 2.016631
2004-07-30 07:37:09 51°18.83 2°55.926 19.770871 4.442604 32.212001 2.016631
2004-07-30 07:37:14 51°18.829 2°55.923 19.771926 4.442393 32.210291 2.050341
2004-07-30 07:37:19 51°18.827 2°55.921 19.776026 4.442815 32.21317 2.08405
2004-07-30 07:37:23 51°18.825 2°55.919 19.772616 4.442604 32.21146 1.982922
2004-07-30 07:37:29 51°18.823 2°55.916 19.774321 4.442393 32.210291 2.050341
2004-07-30 07:37:34 51°18.821 2°55.913 19.777893 4.442498 32.212228 1.982922
2004-07-30 07:37:39 51°18.82 2°55.911 19.777893 4.442498 32.212228 1.982922
2004-07-30 07:37:43 51°18.818 2°55.909 19.778299 4.442393 32.210291 2.016631
2004-07-30 07:37:50 51°18.816 2°55.905 19.773753 4.442709 32.212315 1.949212
2004-07-30 07:37:54 51°18.814 2°55.903 19.773793 4.442604 32.210378 1.915503
2004-07-30 07:37:59 51°18.812 2°55.9 19.771926 4.438279 32.17587 1.915503
2004-07-30 07:38:03 51°18.811 2°55.898 19.774402 4.443026 32.212175 2.050341
2004-07-30 07:38:09 51°18.809 2°55.895 19.774402 4.443026 32.212175 2.050341
2004-07-30 07:38:14 51°18.807 2°55.893 19.773144 4.44292 32.211861 2.08405
2004-07-30 07:38:19 51°18.805 2°55.89 19.773793 4.442498 32.208983 1.848084
2004-07-30 07:38:23 51°18.804 2°55.888 19.773388 4.442604 32.210378 2.050341
2004-07-30 07:38:29 51°18.801 2°55.885 19.773428 4.442393 32.20921 2.08405
2004-07-30 07:38:35 51°18.799 2°55.882 19.775458 4.442498 32.210605 2.151469
2004-07-30 07:38:39 51°18.798 2°55.88 19.775458 4.442498 32.210605 2.151469
2004-07-30 07:38:45 51°18.796 2°55.877 19.772779 4.442393 32.20975 1.915503
2004-07-30 07:38:50 51°18.794 2°55.875 19.77493 4.442498 32.210605 1.982922
2004-07-30 07:38:54 51°18.793 2°55.873 19.772616 4.442498 32.210064 1.915503
2004-07-30 07:38:59 51°18.791 2°55.871 19.774037 4.442604 32.212001 2.08405
2004-07-30 07:39:05 51°18.789 2°55.869 19.773306 4.442287 32.208355 2.016631
2004-07-30 07:39:09 51°18.788 2°55.867 19.773306 4.442287 32.208355 2.016631
2004-07-30 07:39:14 51°18.786 2°55.866 19.775336 4.442393 32.20921 2.08405
2004-07-30 07:39:19 51°18.784 2°55.864 19.773306 4.442709 32.212315 2.050341
2004-07-30 07:39:23 51°18.783 2°55.862 19.773591 4.442604 32.21146 2.117759
2004-07-30 07:39:30 51°18.781 2°55.86 19.773834 4.442709 32.212315 2.016631
2004-07-30 07:39:34 51°18.78 2°55.858 19.773388 4.442393 32.208128 1.915503
2004-07-30 07:39:39 51°18.778 2°55.856 19.773388 4.442393 32.208128 1.915503
2004-07-30 07:39:44 51°18.776 2°55.854 19.774321 4.442709 32.211233 2.016631
2004-07-30 07:39:49 51°18.774 2°55.853 19.774402 4.442498 32.210064 2.050341
2004-07-30 07:39:54 51°18.773 2°55.851 19.772819 4.442498 32.210064 2.08405
2004-07-30 07:39:59 51°18.771 2°55.849 19.773144 4.442393 32.20921 1.949212
2004-07-30 07:40:05 51°18.769 2°55.847 19.771601 4.442604 32.210919 2.050341
2004-07-30 07:40:09 51°18.768 2°55.845 19.771601 4.442604 32.210919 2.050341
2004-07-30 07:40:14 51°18.766 2°55.843 19.774646 4.442287 32.208355 1.982922
2004-07-30 07:40:19 51°18.765 2°55.841 19.773956 4.442498 32.211146 2.08405
2004-07-30 07:40:25 51°18.763 2°55.839 19.773063 4.442393 32.210291 2.016631
2004-07-30 07:40:29 51°18.762 2°55.837 19.774646 4.442604 32.212001 2.016631
2004-07-30 07:40:34 51°18.76 2°55.835 19.775701 4.442604 32.21146 2.08405
2004-07-30 07:40:38 51°18.758 2°55.834 19.775701 4.442604 32.21146 2.08405
2004-07-30 07:40:45 51°18.756 2°55.831 19.775174 4.442709 32.211233 1.949212
2004-07-30 07:40:49 51°18.755 2°55.829 19.772697 4.442182 32.208041 2.016631
2004-07-30 07:40:54 51°18.753 2°55.827 19.772819 4.442498 32.210064 2.050341
2004-07-30 07:40:59 51°18.751 2°55.825 19.773956 4.442604 32.209838 2.151469
2004-07-30 07:41:03 51°18.75 2°55.824 19.7729 4.442709 32.210151 2.117759
2004-07-30 07:41:09 51°18.748 2°55.821 19.7729 4.442709 32.210151 2.117759
2004-07-30 07:41:14 51°18.746 2°55.819 19.773509 4.442604 32.209838 2.08405
2004-07-30 07:41:19 51°18.744 2°55.817 19.774037 4.442604 32.210378 2.08405
2004-07-30 07:41:22 51°18.743 2°55.816 19.773753 4.44292 32.212943 2.218888
2004-07-30 07:41:29 51°18.741 2°55.813 19.773509 4.442498 32.210064 2.185178
2004-07-30 07:41:34 51°18.739 2°55.811 19.774808 4.442393 32.20921 2.151469
2004-07-30 07:41:39 51°18.737 2°55.809 19.774808 4.442393 32.20921 2.151469
2004-07-30 07:41:43 51°18.736 2°55.808 19.773672 4.442393 32.20921 2.151469
2004-07-30 07:41:50 51°18.734 2°55.805 19.77493 4.442393 32.20921 2.117759
2004-07-30 07:41:54 51°18.732 2°55.803 19.772048 4.442393 32.20921 2.050341
2004-07-30 07:41:59 51°18.731 2°55.801 19.772616 4.442393 32.20975 2.185178
2004-07-30 07:42:04 51°18.729 2°55.798 19.773509 4.442287 32.208896 2.151469
2004-07-30 07:42:09 51°18.727 2°55.796 19.773509 4.442287 32.208896 2.151469
2004-07-30 07:42:14 51°18.726 2°55.794 19.772454 4.442498 32.209524 2.151469
2004-07-30 07:42:19 51°18.724 2°55.792 19.773509 4.442393 32.208128 2.117759
2004-07-30 07:42:24 51°18.722 2°55.79 19.773144 4.442287 32.207814 2.016631
2004-07-30 07:42:30 51°18.72 2°55.787 19.775417 4.442393 32.20921 2.016631
2004-07-30 07:42:34 51°18.718 2°55.784 19.771845 4.442287 32.208355 2.050341
2004-07-30 07:42:39 51°18.716 2°55.781 19.771845 4.442287 32.208355 2.050341
2004-07-30 07:42:44 51°18.714 2°55.777 19.773672 4.442604 32.210919 2.117759
2004-07-30 07:42:49 51°18.712 2°55.772 19.777203 4.442393 32.20921 2.117759
2004-07-30 07:42:54 51°18.71 2°55.767 19.77903 4.442604 32.210919 1.982922
2004-07-30 07:42:59 51°18.708 2°55.762 19.779274 4.442393 32.20921 2.016631
2004-07-30 07:43:05 51°18.705 2°55.755 19.778665 4.442076 32.206104 2.117759
2004-07-30 07:43:09 51°18.704 2°55.749 19.778665 4.442076 32.206104 2.117759
2004-07-30 07:43:14 51°18.702 2°55.742 19.77834 4.442498 32.208442 2.117759
2004-07-30 07:43:19 51°18.701 2°55.734 19.778421 4.442604 32.208215 1.982922
2004-07-30 07:43:24 51°18.699 2°55.725 19.778502 4.443026 32.211093 2.016631
2004-07-30 07:43:29 51°18.699 2°55.715 19.778665 4.44292 32.210239 1.982922
2004-07-30 07:43:34 51°18.699 2°55.705 19.778056 4.44292 32.209698 2.117759
2004-07-30 07:43:39 51°18.699 2°55.694 19.778056 4.44292 32.209698 2.117759
2004-07-30 07:43:43 51°18.7 2°55.685 19.776595 4.443131 32.211407 2.185178
2004-07-30 07:43:49 51°18.702 2°55.671 19.780329 4.44292 32.208075 2.050341
2004-07-30 07:43:54 51°18.705 2°55.659 19.776757 4.44292 32.208616 2.08405
2004-07-30 07:43:59 51°18.709 2°55.648 19.777366 4.443026 32.210012 2.185178
2004-07-30 07:44:05 51°18.715 2°55.635 19.779801 4.442815 32.20722 2.218888
2004-07-30 07:44:10 51°18.72 2°55.625 19.779801 4.442815 32.20722 2.218888
2004-07-30 07:44:14 51°18.726 2°55.618 19.775701 4.443025 32.208389 2.050341
2004-07-30 07:44:19 51°18.732 2°55.611 19.771317 4.442815 32.208302 2.151469
2004-07-30 07:44:23 51°18.739 2°55.606 19.769409 4.44292 32.208616 2.185178
2004-07-30 07:44:30 51°18.75 2°55.6 19.767542 4.442815 32.208302 2.286306
2004-07-30 07:44:34 51°18.757 2°55.598 19.769896 4.442604 32.206592 2.185178
2004-07-30 07:44:39 51°18.765 2°55.597 19.769896 4.442604 32.206592 2.185178
2004-07-30 07:44:43 51°18.772 2°55.598 19.768191 4.442604 32.207674 2.185178
2004-07-30 07:44:50 51°18.784 2°55.602 19.77152 4.442287 32.207273 2.117759
2004-07-30 07:44:54 51°18.791 2°55.606 19.768354 4.442287 32.207814 2.286306
2004-07-30 07:44:59 51°18.8 2°55.613 19.76746 4.442182 32.208582 2.218888
2004-07-30 07:45:05 51°18.811 2°55.624 19.764578 4.441971 32.206872 2.151469
2004-07-30 07:45:09 51°18.818 2°55.633 19.764578 4.441971 32.206872 2.151469
2004-07-30 07:45:14 51°18.827 2°55.646 19.763279 4.442076 32.207727 2.117759
2004-07-30 07:45:19 51°18.837 2°55.661 19.764253 4.442393 32.20975 2.185178
2004-07-30 07:45:24 51°18.846 2°55.676 19.763603 4.442076 32.208809 2.151469
2004-07-30 07:45:29 51°18.857 2°55.692 19.763685 4.441865 32.208181 2.218888
2004-07-30 07:45:34 51°18.868 2°55.709 19.764862 4.442076 32.211514 2.151469
2004-07-30 07:45:39 51°18.879 2°55.727 19.764862 4.442076 32.211514 2.151469
2004-07-30 07:45:43 51°18.888 2°55.741 19.765796 4.44176 32.20949 2.185178
2004-07-30 07:45:49 51°18.902 2°55.764 19.76336 4.441971 32.2112 2.117759
2004-07-30 07:45:54 51°18.914 2°55.782 19.76474 4.44176 32.210572 1.982922
2004-07-30 07:45:59 51°18.925 2°55.801 19.766405 4.44176 32.210031 2.050341
2004-07-30 07:46:04 51°18.937 2°55.821 19.763888 4.441865 32.210345 2.151469
2004-07-30 07:46:09 51°18.948 2°55.84 19.763888 4.441865 32.210345 2.151469
2004-07-30 07:46:14 51°18.96 2°55.86 19.768597 4.441865 32.210345 2.016631
2004-07-30 07:46:19 51°18.972 2°55.88 19.769653 4.442076 32.212055 2.08405
2004-07-30 07:46:23 51°18.981 2°55.896 19.764943 4.44176 32.210031 1.982922
2004-07-30 07:46:29 51°18.995 2°55.92 19.770099 4.441971 32.2112 2.016631
2004-07-30 07:46:34 51°19.006 2°55.94 19.768597 4.441865 32.210886 2.050341
2004-07-30 07:46:39 51°19.017 2°55.961 19.768597 4.441865 32.210886 2.050341
2004-07-30 07:46:43 51°19.026 2°55.977 19.767298 4.441865 32.208721 2.050341
2004-07-30 07:46:49 51°19.04 2°56.003 19.768678 4.442182 32.211287 2.08405
2004-07-30 07:46:54 51°19.05 2°56.024 19.768069 4.442498 32.214934 2.016631
2004-07-30 07:46:59 51°19.061 2°56.046 19.770708 4.442498 32.21331 2.08405
2004-07-30 07:47:05 51°19.073 2°56.072 19.768516 4.442604 32.214165 2.08405
2004-07-30 07:47:09 51°19.082 2°56.09 19.768516 4.442604 32.214165 2.08405
2004-07-30 07:47:14 51°19.092 2°56.112 19.769206 4.442815 32.216417 2.016631
2004-07-30 07:47:19 51°19.102 2°56.133 19.769977 4.442604 32.213624 2.050341
2004-07-30 07:47:24 51°19.113 2°56.155 19.770627 4.442815 32.215334 1.982922
2004-07-30 07:47:29 51°19.123 2°56.177 19.771155 4.443026 32.216503 1.915503
2004-07-30 07:47:34 51°19.134 2°56.199 19.773266 4.443026 32.217044 1.982922
2004-07-30 07:47:39 51°19.144 2°56.22 19.773266 4.443026 32.217044 1.982922
2004-07-30 07:47:43 51°19.153 2°56.238 19.773915 4.443131 32.217358 1.982922
2004-07-30 07:47:49 51°19.165 2°56.264 19.774646 4.443026 32.216503 2.08405
2004-07-30 07:47:54 51°19.176 2°56.286 19.774808 4.443342 32.217986 1.949212
2004-07-30 07:47:59 51°19.186 2°56.307 19.777366 4.443237 32.217131 1.915503
2004-07-30 07:48:03 51°19.195 2°56.325 19.777203 4.443447 32.217759 1.915503
2004-07-30 07:48:09 51°19.207 2°56.351 19.777203 4.443447 32.217759 1.915503
2004-07-30 07:48:15 51°19.22 2°56.378 19.779192 4.443448 32.2183 1.949212
2004-07-30 07:48:19 51°19.228 2°56.396 19.779436 4.443342 32.21474 1.982922
2004-07-30 07:48:24 51°19.238 2°56.418 19.778827 4.443764 32.2187 1.915503
2004-07-30 07:48:29 51°19.247 2°56.441 19.781466 4.443869 32.218473 1.982922
2004-07-30 07:48:34 51°19.256 2°56.465 19.780004 4.443975 32.218246 1.881794
2004-07-30 07:48:39 51°19.263 2°56.49 19.780004 4.443975 32.218246 1.881794
2004-07-30 07:48:43 51°19.269 2°56.51 19.781709 4.444291 32.220811 1.982922
2004-07-30 07:48:49 51°19.278 2°56.54 19.782562 4.440494 32.190037 1.949212
2004-07-30 07:48:54 51°19.284 2°56.566 19.78524 4.444397 32.220043 2.08405
2004-07-30 07:48:59 51°19.29 2°56.592 19.784145 4.444713 32.220984 1.848084
2004-07-30 07:49:03 51°19.295 2°56.612 19.784266 4.444608 32.221211 1.814375
2004-07-30 07:49:09 51°19.302 2°56.644 19.784266 4.444608 32.221211 1.814375
2004-07-30 07:49:14 51°19.308 2°56.67 19.785403 4.444713 32.220443 1.881794
2004-07-30 07:49:19 51°19.314 2°56.696 19.783211 4.444819 32.221298 2.08405
2004-07-30 07:49:25 51°19.32 2°56.728 19.784753 4.444819 32.220216 2.050341
2004-07-30 07:49:29 51°19.325 2°56.748 19.78455 4.44524 32.223094 1.949212
2004-07-30 07:49:34 51°19.331 2°56.774 19.788528 4.444819 32.220216 1.881794
2004-07-30 07:49:39 51°19.338 2°56.8 19.788528 4.444819 32.220216 1.881794
2004-07-30 07:49:43 51°19.343 2°56.82 19.784429 4.444924 32.221071 1.982922
2004-07-30 07:49:50 51°19.352 2°56.856 19.790192 4.444924 32.221071 1.982922
2004-07-30 07:49:55 51°19.358 2°56.881 19.786702 4.444713 32.21882 1.915503
2004-07-30 07:49:59 51°19.364 2°56.902 19.787229 4.445135 32.222239 1.780665
2004-07-30 07:50:04 51°19.37 2°56.927 19.787432 4.444924 32.219448 2.016631
2004-07-30 07:50:09 51°19.377 2°56.952 19.787432 4.444924 32.219448 2.016631
2004-07-30 07:50:14 51°19.383 2°56.978 19.786174 4.445029 32.220843 2.050341
2004-07-30 07:50:19 51°19.39 2°57.003 19.792221 4.444818 32.218593 2.08405
2004-07-30 07:50:23 51°19.395 2°57.024 19.786417 4.445029 32.219762 1.848084
2004-07-30 07:50:30 51°19.403 2°57.06 19.788203 4.444608 32.215802 2.016631
2004-07-30 07:50:34 51°19.408 2°57.081 19.787757 4.444818 32.216971 2.050341
2004-07-30 07:50:39 51°19.414 2°57.106 19.787757 4.444818 32.216971 2.050341
2004-07-30 07:50:44 51°19.421 2°57.132 19.786905 4.445029 32.219221 1.982922
2004-07-30 07:50:49 51°19.427 2°57.157 19.787513 4.444502 32.214407 2.08405
2004-07-30 07:50:55 51°19.435 2°57.187 19.787392 4.444608 32.215802 1.848084
2004-07-30 07:50:59 51°19.441 2°57.207 19.787392 4.444502 32.214947 2.08405
2004-07-30 07:51:03 51°19.446 2°57.227 19.790638 4.444291 32.212697 2.016631
2004-07-30 07:51:09 51°19.454 2°57.257 19.790638 4.444291 32.212697 2.016631
2004-07-30 07:51:14 51°19.461 2°57.282 19.787392 4.444502 32.214947 1.949212
2004-07-30 07:51:19 51°19.467 2°57.308 19.78865 4.444713 32.216116 1.949212
2004-07-30 07:51:24 51°19.474 2°57.333 19.789502 4.44408 32.211529 1.982922
2004-07-30 07:51:29 51°19.48 2°57.359 19.78796 4.444397 32.213552 1.915503
2004-07-30 07:51:34 51°19.486 2°57.384 19.786783 4.44408 32.210447 2.151469
2004-07-30 07:51:39 51°19.492 2°57.41 19.786783 4.44408 32.210447 2.151469
2004-07-30 07:51:44 51°19.499 2°57.436 19.790476 4.444291 32.212697 2.016631
2004-07-30 07:51:49 51°19.505 2°57.461 19.790841 4.444186 32.212383 2.117759
2004-07-30 07:51:55 51°19.513 2°57.492 19.786905 4.44408 32.211529 1.949212
2004-07-30 07:51:59 51°19.518 2°57.512 19.787919 4.444291 32.213779 1.982922
2004-07-30 07:52:03 51°19.523 2°57.532 19.787392 4.444186 32.212383 1.982922
2004-07-30 07:52:09 51°19.531 2°57.562 19.787392 4.444186 32.212383 1.982922
2004-07-30 07:52:14 51°19.538 2°57.588 19.787919 4.443975 32.209593 2.050341
2004-07-30 07:52:19 51°19.545 2°57.612 19.783982 4.44408 32.209907 1.848084
2004-07-30 07:52:24 51°19.551 2°57.638 19.789949 4.44408 32.210988 1.881794
2004-07-30 07:52:29 51°19.557 2°57.663 19.780857 4.443869 32.209819 1.982922
2004-07-30 07:52:34 51°19.564 2°57.688 19.781993 4.443975 32.211215 1.915503
2004-07-30 07:52:39 51°19.57 2°57.713 19.781993 4.443975 32.211215 1.915503
2004-07-30 07:52:43 51°19.576 2°57.733 19.783739 4.444186 32.212924 1.982922
2004-07-30 07:52:49 51°19.584 2°57.763 19.777285 4.444397 32.215174 2.016631
2004-07-30 07:52:55 51°19.592 2°57.792 19.777 4.445029 32.219762 2.016631
2004-07-30 07:52:59 51°19.597 2°57.812 19.774402 4.445135 32.221698 2.08405
2004-07-30 07:53:03 51°19.602 2°57.832 19.77834 4.445346 32.225031 1.949212
2004-07-30 07:53:10 51°19.611 2°57.867 19.77834 4.445346 32.225031 1.949212
2004-07-30 07:53:14 51°19.617 2°57.887 19.772819 4.445451 32.226968 1.949212
2004-07-30 07:53:19 51°19.623 2°57.912 19.774199 4.445346 32.227736 2.050341
2004-07-30 07:53:23 51°19.628 2°57.932 19.776229 4.445241 32.228505 2.016631
2004-07-30 07:53:30 51°19.636 2°57.968 19.772819 4.445557 32.231069 2.08405
2004-07-30 07:53:34 51°19.641 2°57.988 19.773185 4.445451 32.230756 2.016631
2004-07-30 07:53:39 51°19.647 2°58.013 19.773185 4.445451 32.230756 2.016631
2004-07-30 07:53:43 51°19.652 2°58.033 19.771398 4.445346 32.229901 2.117759
2004-07-30 07:53:49 51°19.659 2°58.063 19.771236 4.445662 32.233548 2.050341
2004-07-30 07:53:54 51°19.666 2°58.088 19.773063 4.445768 32.236027 2.050341
2004-07-30 07:54:00 51°19.673 2°58.118 19.77493 4.445662 32.23409 2.08405
2004-07-30 07:54:04 51°19.679 2°58.138 19.772535 4.445557 32.2354 2.117759
2004-07-30 07:54:09 51°19.685 2°58.163 19.772535 4.445557 32.2354 2.117759
2004-07-30 07:54:14 51°19.692 2°58.188 19.776107 4.445768 32.236027 2.08405
2004-07-30 07:54:19 51°19.698 2°58.213 19.771764 4.445979 32.237196 2.050341
2004-07-30 07:54:23 51°19.703 2°58.233 19.771398 4.445557 32.233235 2.117759
2004-07-30 07:54:30 51°19.712 2°58.268 19.776838 4.445135 32.230356 2.185178
2004-07-30 07:54:34 51°19.718 2°58.288 19.773266 4.445557 32.233776 2.185178
2004-07-30 07:54:39 51°19.724 2°58.313 19.773266 4.445557 32.233776 2.185178
2004-07-30 07:54:43 51°19.729 2°58.333 19.774281 4.445346 32.231525 2.050341
2004-07-30 07:54:49 51°19.737 2°58.363 19.774199 4.444924 32.229187 2.050341
2004-07-30 07:54:54 51°19.743 2°58.388 19.776026 4.444608 32.227164 2.050341
2004-07-30 07:54:59 51°19.75 2°58.413 19.774484 4.444291 32.222975 1.982922
2004-07-30 07:55:04 51°19.756 2°58.438 19.776554 4.444502 32.225226 2.151469
2004-07-30 07:55:10 51°19.764 2°58.469 19.776554 4.444502 32.225226 2.151469
2004-07-30 07:55:14 51°19.769 2°58.489 19.773793 4.444713 32.225854 2.050341
2004-07-30 07:55:19 51°19.776 2°58.514 19.775458 4.444502 32.223603 1.982922
2004-07-30 07:55:24 51°19.782 2°58.539 19.773063 4.444186 32.221579 1.982922
2004-07-30 07:55:30 51°19.79 2°58.569 19.775783 4.444397 32.222748 2.117759
2004-07-30 07:55:34 51°19.795 2°58.589 19.771155 4.444397 32.222748 2.185178
2004-07-30 07:55:39 51°19.802 2°58.614 19.771155 4.444397 32.222748 2.185178
2004-07-30 07:55:43 51°19.807 2°58.635 19.771845 4.444291 32.222434 2.016631
2004-07-30 07:55:50 51°19.817 2°58.67 19.77489 4.443869 32.219555 2.08405
2004-07-30 07:55:54 51°19.822 2°58.69 19.771155 4.444186 32.221579 2.117759
2004-07-30 07:55:59 51°19.829 2°58.715 19.772454 4.444397 32.22383 2.151469
2004-07-30 07:56:04 51°19.835 2°58.741 19.771764 4.443869 32.220638 2.050341
2004-07-30 07:56:08 51°19.84 2°58.761 19.771764 4.443869 32.220638 2.050341
2004-07-30 07:56:14 51°19.848 2°58.792 19.771074 4.444186 32.222661 2.117759
2004-07-30 07:56:19 51°19.854 2°58.817 19.770383 4.443869 32.220638 2.117759
2004-07-30 07:56:25 51°19.861 2°58.848 19.768435 4.443869 32.220638 2.08405
2004-07-30 07:56:29 51°19.866 2°58.868 19.769977 4.443869 32.220638 2.050341
2004-07-30 07:56:34 51°19.873 2°58.894 19.767136 4.443869 32.22172 2.016631
2004-07-30 07:56:39 51°19.879 2°58.919 19.767136 4.443869 32.22172 2.016631
2004-07-30 07:56:43 51°19.884 2°58.94 19.766608 4.443764 32.219783 2.050341
2004-07-30 07:56:49 51°19.893 2°58.97 19.765552 4.443237 32.21659 2.050341
2004-07-30 07:56:54 51°19.899 2°58.995 19.766486 4.44292 32.215107 2.117759
2004-07-30 07:56:59 51°19.906 2°59.021 19.762751 4.442498 32.21331 2.151469
2004-07-30 07:57:04 51°19.913 2°59.046 19.767136 4.442393 32.212997 2.218888
2004-07-30 07:57:09 51°19.92 2°59.071 19.767136 4.442393 32.212997 2.218888
2004-07-30 07:57:14 51°19.927 2°59.096 19.765552 4.442287 32.212683 2.218888
2004-07-30 07:57:19 51°19.934 2°59.122 19.767014 4.442287 32.212683 2.252597
2004-07-30 07:57:23 51°19.939 2°59.142 19.769409 4.441865 32.210886 2.320016
2004-07-30 07:57:29 51°19.947 2°59.172 19.766405 4.442076 32.212055 2.151469
2004-07-30 07:57:34 51°19.954 2°59.198 19.767988 4.442287 32.214306 2.185178
2004-07-30 07:57:39 51°19.96 2°59.224 19.767988 4.442287 32.214306 2.185178
2004-07-30 07:57:43 51°19.965 2°59.244 19.770911 4.442604 32.215248 2.117759
2004-07-30 07:57:49 51°19.973 2°59.275 19.768597 4.443237 32.219837 2.117759
2004-07-30 07:57:54 51°19.979 2°59.301 19.769815 4.443237 32.219837 2.08405
2004-07-30 07:57:59 51°19.985 2°59.327 19.767379 4.443553 32.222943 2.050341
2004-07-30 07:58:03 51°19.989 2°59.347 19.769937 4.443659 32.222716 2.218888
2004-07-30 07:58:09 51°19.997 2°59.378 19.769937 4.443659 32.222716 2.218888
2004-07-30 07:58:14 51°20.003 2°59.404 19.76876 4.444186 32.225908 2.151469
2004-07-30 07:58:19 51°20.01 2°59.429 19.768962 4.44408 32.225595 2.117759
2004-07-30 07:58:24 51°20.016 2°59.454 19.770424 4.444186 32.225367 2.151469
2004-07-30 07:58:29 51°20.023 2°59.48 19.771155 4.444397 32.227619 2.117759
2004-07-30 07:58:34 51°20.029 2°59.505 19.771764 4.444397 32.227619 2.117759
2004-07-30 07:58:39 51°20.036 2°59.531 19.771764 4.444397 32.227619 2.117759
2004-07-30 07:58:43 51°20.041 2°59.551 19.772291 4.444502 32.229015 2.185178
2004-07-30 07:58:49 51°20.049 2°59.581 19.774199 4.444608 32.229329 2.08405
2004-07-30 07:58:54 51°20.055 2°59.607 19.775336 4.444924 32.231352 2.08405
2004-07-30 07:58:59 51°20.061 2°59.632 19.779883 4.445241 32.232835 1.982922
2004-07-30 07:59:03 51°20.067 2°59.653 19.778746 4.44503 32.231125 2.117759
2004-07-30 07:59:10 51°20.075 2°59.688 19.778746 4.44503 32.231125 2.117759
2004-07-30 07:59:14 51°20.08 2°59.709 19.778989 4.445346 32.233149 2.050341
2004-07-30 07:59:19 51°20.086 2°59.735 19.779964 4.445241 32.232294 2.016631
2004-07-30 07:59:24 51°20.092 2°59.76 19.779192 4.445979 32.236113 1.982922
2004-07-30 07:59:29 51°20.098 2°59.786 19.778665 4.445768 32.233862 2.08405
2004-07-30 07:59:34 51°20.104 2°59.812 19.77968 4.446084 32.235344 2.08405
2004-07-30 07:59:39 51°20.11 2°59.838 19.77968 4.446084 32.235344 2.08405
2004-07-30 07:59:43 51°20.115 2°59.858 19.781547 4.445873 32.232552 1.982922
2004-07-30 07:59:49 51°20.123 2°59.889 19.781141 4.445979 32.233407 2.117759
2004-07-30 07:59:54 51°20.129 2°59.914 19.780491 4.44619 32.235116 2.218888
2004-07-30 07:59:59 51°20.136 2°59.939 19.781628 4.446401 32.236285 1.915503
2004-07-30 08:00:05 51°20.144 2°59.97 19.783414 4.446401 32.236285 2.016631
2004-07-30 08:00:09 51°20.149 2°59.99 19.783414 4.446401 32.236285 2.016631
2004-07-30 08:00:14 51°20.155 3°0.016 19.783414 4.446401 32.236285 1.949212
2004-07-30 08:00:19 51°20.162 3°0.042 19.784794 4.446612 32.237995 2.016631
2004-07-30 08:00:23 51°20.167 3°0.062 19.784875 4.446506 32.236057 2.016631
2004-07-30 08:00:30 51°20.175 3°0.099 19.786296 4.446823 32.238622 2.050341
2004-07-30 08:00:34 51°20.18 3°0.119 19.787513 4.446717 32.236685 2.016631
2004-07-30 08:00:39 51°20.186 3°0.145 19.787513 4.446717 32.236685 2.016631
2004-07-30 08:00:43 51°20.19 3°0.166 19.79003 4.446823 32.236457 1.949212
2004-07-30 08:00:50 51°20.199 3°0.203 19.788569 4.446823 32.236457 2.050341
2004-07-30 08:00:54 51°20.204 3°0.224 19.787757 4.447033 32.237084 2.117759
2004-07-30 08:00:59 51°20.21 3°0.25 19.790111 4.447139 32.237398 2.016631
2004-07-30 08:01:03 51°20.215 3°0.27 19.788122 4.447139 32.236857 2.050341
2004-07-30 08:01:10 51°20.224 3°0.306 19.788122 4.447139 32.236857 2.050341
2004-07-30 08:01:14 51°20.229 3°0.327 19.78731 4.447772 32.241444 2.117759
2004-07-30 08:01:19 51°20.236 3°0.353 19.787067 4.447666 32.240048 1.949212
2004-07-30 08:01:25 51°20.244 3°0.383 19.788447 4.447455 32.238338 2.016631
2004-07-30 08:01:29 51°20.25 3°0.403 19.78731 4.447666 32.240048 1.982922
2004-07-30 08:01:34 51°20.257 3°0.429 19.788812 4.447877 32.241216 2.050341
2004-07-30 08:01:39 51°20.264 3°0.454 19.788812 4.447877 32.241216 2.050341
2004-07-30 08:01:43 51°20.27 3°0.474 19.788569 4.447772 32.240903 2.08405
2004-07-30 08:01:49 51°20.278 3°0.505 19.78796 4.447877 32.242299 2.185178
2004-07-30 08:01:54 51°20.285 3°0.531 19.790801 4.447877 32.242299 2.08405
2004-07-30 08:01:59 51°20.291 3°0.557 19.788284 4.447877 32.241216 1.881794
2004-07-30 08:02:03 51°20.296 3°0.578 19.790111 4.447772 32.240903 2.117759
2004-07-30 08:02:10 51°20.305 3°0.614 19.790111 4.447772 32.240903 2.117759
2004-07-30 08:02:14 51°20.31 3°0.635 19.790111 4.447772 32.23982 1.949212
2004-07-30 08:02:19 51°20.316 3°0.662 19.789056 4.447877 32.241216 2.016631
2004-07-30 08:02:23 51°20.321 3°0.683 19.788284 4.447983 32.242071 1.949212
2004-07-30 08:02:29 51°20.329 3°0.714 19.786539 4.447983 32.242071 1.949212
2004-07-30 08:02:34 51°20.335 3°0.74 19.785403 4.448088 32.242926 1.949212
2004-07-30 08:02:39 51°20.341 3°0.766 19.785403 4.448088 32.242926 1.949212
2004-07-30 08:02:45 51°20.349 3°0.798 19.788528 4.448088 32.242385 2.050341
2004-07-30 08:02:49 51°20.354 3°0.819 19.787595 4.448299 32.244635 2.050341
2004-07-30 08:02:54 51°20.361 3°0.844 19.786417 4.448088 32.242385 2.218888
2004-07-30 08:02:59 51°20.368 3°0.87 19.787513 4.448827 32.248368 1.881794
2004-07-30 08:03:03 51°20.373 3°0.891 19.786093 4.447983 32.243695 1.982922
2004-07-30 08:03:09 51°20.381 3°0.922 19.786093 4.447983 32.243695 1.982922
2004-07-30 08:03:14 51°20.388 3°0.948 19.790638 4.44851 32.247428 1.881794
2004-07-30 08:03:19 51°20.394 3°0.975 19.786174 4.44851 32.247428 2.117759
2004-07-30 08:03:24 51°20.401 3°1.001 19.786823 4.448721 32.249679 2.08405
2004-07-30 08:03:29 51°20.408 3°1.027 19.787919 4.44851 32.246886 1.982922
2004-07-30 08:03:34 51°20.414 3°1.053 19.784794 4.44851 32.247428 1.915503
2004-07-30 08:03:39 51°20.421 3°1.079 19.784794 4.44851 32.247428 1.915503
2004-07-30 08:03:43 51°20.426 3°1.1 19.783982 4.448721 32.248596 1.982922
2004-07-30 08:03:49 51°20.434 3°1.131 19.782277 4.449143 32.251474 1.982922
2004-07-30 08:03:54 51°20.441 3°1.158 19.778949 4.449354 32.253183 2.08405
2004-07-30 08:03:59 51°20.447 3°1.184 19.77834 4.449565 32.256517 2.185178
2004-07-30 08:04:05 51°20.455 3°1.214 19.783211 4.449881 32.260165 2.08405
2004-07-30 08:04:10 51°20.462 3°1.241 19.783211 4.449881 32.260165 2.08405
2004-07-30 08:04:14 51°20.467 3°1.262 19.79283 4.449776 32.259852 2.117759
2004-07-30 08:04:19 51°20.473 3°1.288 19.781141 4.450409 32.264981 1.982922
2004-07-30 08:04:25 51°20.479 3°1.32 19.783373 4.450092 32.264042 2.08405
2004-07-30 08:04:29 51°20.483 3°1.342 19.779558 4.450303 32.266835 2.050341
2004-07-30 08:04:34 51°20.488 3°1.369 19.775498 4.450725 32.268088 2.08405
2004-07-30 08:04:39 51°20.493 3°1.396 19.775498 4.450725 32.268088 2.08405
2004-07-30 08:04:43 51°20.497 3°1.417 19.781263 4.451358 32.27105 2.08405
2004-07-30 08:04:49 51°20.504 3°1.449 19.775255 4.451358 32.27105 2.050341
2004-07-30 08:04:54 51°20.51 3°1.476 19.775417 4.452307 32.279287 2.016631
2004-07-30 08:04:59 51°20.515 3°1.502 19.772129 4.45294 32.286585 2.016631
2004-07-30 08:05:04 51°20.521 3°1.529 19.764943 4.452835 32.287898 1.881794
2004-07-30 08:05:09 51°20.527 3°1.555 19.764943 4.452835 32.287898 1.881794
2004-07-30 08:05:14 51°20.534 3°1.581 19.773063 4.453889 32.296449 1.982922
2004-07-30 08:05:19 51°20.54 3°1.608 19.767095 4.453995 32.300016 2.050341
2004-07-30 08:05:23 51°20.544 3°1.629 19.772129 4.454839 32.307943 1.915503
2004-07-30 08:05:29 51°20.551 3°1.661 19.772657 4.455366 32.315476 1.949212
2004-07-30 08:05:34 51°20.557 3°1.688 19.77018 4.455577 32.316644 2.08405
2004-07-30 08:05:39 51°20.562 3°1.714 19.77018 4.455577 32.316644 2.08405
2004-07-30 08:05:43 51°20.567 3°1.736 19.763969 4.455788 32.318355 1.814375
2004-07-30 08:05:50 51°20.574 3°1.773 19.770627 4.455999 32.320065 2.016631
2004-07-30 08:05:54 51°20.579 3°1.795 19.759868 4.457476 32.332584 1.915503
2004-07-30 08:05:59 51°20.584 3°1.822 19.763522 4.457581 32.333983 1.881794
2004-07-30 08:06:03 51°20.589 3°1.843 19.762142 4.458636 32.341994 1.915503
2004-07-30 08:06:10 51°20.598 3°1.88 19.762142 4.458636 32.341994 1.915503
2004-07-30 08:06:14 51°20.603 3°1.901 19.755036 4.459585 32.349694 1.848084
2004-07-30 08:06:19 51°20.609 3°1.928 19.755726 4.459796 32.354122 1.982922
2004-07-30 08:06:23 51°20.614 3°1.949 19.760558 4.460007 32.358551 1.982922
2004-07-30 08:06:29 51°20.621 3°1.981 19.750163 4.460113 32.360494 2.050341
2004-07-30 08:06:34 51°20.627 3°2.007 19.752437 4.459691 32.358702 1.949212
2004-07-30 08:06:39 51°20.633 3°2.034 19.752437 4.459691 32.358702 1.949212
2004-07-30 08:06:45 51°20.64 3°2.066 19.75662 4.459797 32.361189 2.016631
2004-07-30 08:06:49 51°20.645 3°2.088 19.761451 4.459691 32.359789 1.949212
2004-07-30 08:06:54 51°20.65 3°2.114 19.755726 4.460113 32.3643 2.016631
2004-07-30 08:06:59 51°20.656 3°2.142 19.758366 4.459797 32.36282 2.050341
2004-07-30 08:07:03 51°20.661 3°2.163 19.751909 4.46064 32.370755 1.949212
2004-07-30 08:07:09 51°20.668 3°2.195 19.751909 4.46064 32.370755 1.949212
2004-07-30 08:07:14 51°20.674 3°2.222 19.75065 4.460535 32.368811 2.016631
2004-07-30 08:07:19 51°20.681 3°2.248 19.750691 4.462011 32.376985 1.949212
2004-07-30 08:07:23 51°20.686 3°2.269 19.751909 4.462644 32.384296 1.982922
2004-07-30 08:07:29 51°20.694 3°2.301 19.758122 4.462433 32.382585 1.949212
2004-07-30 08:07:34 51°20.7 3°2.328 19.758203 4.462644 32.387562 1.881794
2004-07-30 08:07:39 51°20.706 3°2.355 19.758203 4.462644 32.387562 1.881794
2004-07-30 08:07:45 51°20.713 3°2.388 19.760193 4.46275 32.389506 1.881794
2004-07-30 08:07:50 51°20.719 3°2.415 19.759503 4.462539 32.388339 1.915503
2004-07-30 08:07:54 51°20.724 3°2.436 19.75865 4.462539 32.38725 1.982922
2004-07-30 08:07:59 51°20.73 3°2.463 19.758447 4.463172 32.390209 1.881794
2004-07-30 08:08:05 51°20.737 3°2.496 19.761533 4.458636 32.351776 1.982922
2004-07-30 08:08:09 51°20.742 3°2.517 19.761533 4.458636 32.351776 1.982922
2004-07-30 08:08:14 51°20.748 3°2.544 19.760112 4.458425 32.349521 2.050341
2004-07-30 08:08:19 51°20.754 3°2.571 19.761614 4.462433 32.380952 2.016631
2004-07-30 08:08:23 51°20.759 3°2.592 19.759259 4.462539 32.381264 1.881794
2004-07-30 08:08:29 51°20.766 3°2.624 19.769571 4.462539 32.381264 1.848084
2004-07-30 08:08:34 51°20.772 3°2.651 19.765796 4.462961 32.384687 1.848084
2004-07-30 08:08:39 51°20.779 3°2.678 19.765796 4.462961 32.384687 1.848084